<?xml version="1.0" encoding="UTF-8" standalone="no" ?>
<gpx xmlns="http://www.topografix.com/GPX/1/1" xmlns:xsi="http://www.w3.org/2001/XMLSchema-instance" xsi:schemaLocation="http://www.topografix.com/GPX/1/1 http://www.topografix.com/GPX/1/1/gpx.xsd" version="1.1" creator="VisuGPX - https://www.visugpx.com">
  <metadata>
    <name>Razorbike Mixte</name>
    <desc><![CDATA[Mixte des spe du Razorbike   Ushuaia]]></desc>
  </metadata>
  <trk>
    <name><![CDATA[2015-01-20 17:01:20]]></name>
    <trkseg>
      <trkpt lat="43.50852" lon="6.94147">
        <ele>-1.43</ele>
        <time>2015-01-20T12:18:18Z</time>
      </trkpt>
      <trkpt lat="43.50852" lon="6.94146">
        <ele>0.67</ele>
        <time>2015-01-20T12:18:20Z</time>
      </trkpt>
      <trkpt lat="43.50853" lon="6.94146">
        <ele>2.48</ele>
        <time>2015-01-20T12:18:23Z</time>
      </trkpt>
      <trkpt lat="43.50848" lon="6.94161">
        <ele>3.08</ele>
        <time>2015-01-20T12:18:44Z</time>
      </trkpt>
      <trkpt lat="43.50831" lon="6.94172">
        <ele>2.89</ele>
        <time>2015-01-20T12:18:52Z</time>
      </trkpt>
      <trkpt lat="43.50832" lon="6.94173">
        <ele>2.9</ele>
        <time>2015-01-20T12:18:55Z</time>
      </trkpt>
      <trkpt lat="43.50826" lon="6.94176">
        <ele>2.55</ele>
        <time>2015-01-20T12:19:06Z</time>
      </trkpt>
      <trkpt lat="43.50797" lon="6.94181">
        <ele>3.37</ele>
        <time>2015-01-20T12:19:18Z</time>
      </trkpt>
      <trkpt lat="43.50759" lon="6.94184">
        <ele>4.48</ele>
        <time>2015-01-20T12:19:32Z</time>
      </trkpt>
      <trkpt lat="43.5073" lon="6.94157">
        <ele>4.7</ele>
        <time>2015-01-20T12:19:43Z</time>
      </trkpt>
      <trkpt lat="43.50694" lon="6.94114">
        <ele>4.99</ele>
        <time>2015-01-20T12:19:57Z</time>
      </trkpt>
      <trkpt lat="43.50662" lon="6.94068">
        <ele>5.26</ele>
        <time>2015-01-20T12:20:12Z</time>
      </trkpt>
      <trkpt lat="43.50639" lon="6.94031">
        <ele>5.37</ele>
        <time>2015-01-20T12:20:24Z</time>
      </trkpt>
      <trkpt lat="43.50619" lon="6.93987">
        <ele>5.59</ele>
        <time>2015-01-20T12:20:36Z</time>
      </trkpt>
      <trkpt lat="43.50583" lon="6.93955">
        <ele>6.08</ele>
        <time>2015-01-20T12:20:49Z</time>
      </trkpt>
      <trkpt lat="43.50548" lon="6.93916">
        <ele>7.26</ele>
        <time>2015-01-20T12:21:03Z</time>
      </trkpt>
      <trkpt lat="43.50505" lon="6.93886">
        <ele>7.88</ele>
        <time>2015-01-20T12:21:17Z</time>
      </trkpt>
      <trkpt lat="43.50464" lon="6.93857">
        <ele>8.7</ele>
        <time>2015-01-20T12:21:30Z</time>
      </trkpt>
      <trkpt lat="43.50423" lon="6.93814">
        <ele>11.07</ele>
        <time>2015-01-20T12:21:45Z</time>
      </trkpt>
      <trkpt lat="43.50396" lon="6.93775">
        <ele>13.71</ele>
        <time>2015-01-20T12:21:58Z</time>
      </trkpt>
      <trkpt lat="43.50357" lon="6.9375">
        <ele>16.1</ele>
        <time>2015-01-20T12:22:11Z</time>
      </trkpt>
      <trkpt lat="43.50344" lon="6.93746">
        <ele>17.13</ele>
        <time>2015-01-20T12:22:16Z</time>
      </trkpt>
      <trkpt lat="43.50352" lon="6.93768">
        <ele>18.09</ele>
        <time>2015-01-20T12:22:24Z</time>
      </trkpt>
      <trkpt lat="43.50392" lon="6.93797">
        <ele>19.77</ele>
        <time>2015-01-20T12:22:38Z</time>
      </trkpt>
      <trkpt lat="43.50411" lon="6.93836">
        <ele>21.17</ele>
        <time>2015-01-20T12:22:49Z</time>
      </trkpt>
      <trkpt lat="43.50414" lon="6.93843">
        <ele>21.4</ele>
        <time>2015-01-20T12:22:52Z</time>
      </trkpt>
      <trkpt lat="43.50419" lon="6.93893">
        <ele>23.21</ele>
        <time>2015-01-20T12:23:06Z</time>
      </trkpt>
      <trkpt lat="43.50453" lon="6.93934">
        <ele>24.6</ele>
        <time>2015-01-20T12:23:19Z</time>
      </trkpt>
      <trkpt lat="43.50484" lon="6.93984">
        <ele>26.94</ele>
        <time>2015-01-20T12:23:33Z</time>
      </trkpt>
      <trkpt lat="43.5052" lon="6.94022">
        <ele>28.64</ele>
        <time>2015-01-20T12:23:45Z</time>
      </trkpt>
      <trkpt lat="43.50537" lon="6.94044">
        <ele>29.72</ele>
        <time>2015-01-20T12:23:53Z</time>
      </trkpt>
      <trkpt lat="43.50529" lon="6.9404">
        <ele>30.8</ele>
        <time>2015-01-20T12:24:00Z</time>
      </trkpt>
      <trkpt lat="43.50527" lon="6.94038">
        <ele>30.88</ele>
        <time>2015-01-20T12:24:01Z</time>
      </trkpt>
      <trkpt lat="43.50507" lon="6.94018">
        <ele>34.26</ele>
        <time>2015-01-20T12:24:13Z</time>
      </trkpt>
      <trkpt lat="43.50492" lon="6.94006">
        <ele>37.43</ele>
        <time>2015-01-20T12:24:23Z</time>
      </trkpt>
      <trkpt lat="43.50475" lon="6.93999">
        <ele>40.52</ele>
        <time>2015-01-20T12:24:34Z</time>
      </trkpt>
      <trkpt lat="43.50457" lon="6.93983">
        <ele>43.69</ele>
        <time>2015-01-20T12:24:45Z</time>
      </trkpt>
      <trkpt lat="43.50437" lon="6.93961">
        <ele>46.83</ele>
        <time>2015-01-20T12:24:58Z</time>
      </trkpt>
      <trkpt lat="43.50414" lon="6.93951">
        <ele>50.05</ele>
        <time>2015-01-20T12:25:11Z</time>
      </trkpt>
      <trkpt lat="43.50394" lon="6.93945">
        <ele>53.13</ele>
        <time>2015-01-20T12:25:24Z</time>
      </trkpt>
      <trkpt lat="43.5037" lon="6.93927">
        <ele>55.94</ele>
        <time>2015-01-20T12:25:38Z</time>
      </trkpt>
      <trkpt lat="43.50357" lon="6.93894">
        <ele>57.67</ele>
        <time>2015-01-20T12:25:52Z</time>
      </trkpt>
      <trkpt lat="43.50345" lon="6.93857">
        <ele>59.94</ele>
        <time>2015-01-20T12:26:07Z</time>
      </trkpt>
      <trkpt lat="43.50341" lon="6.93849">
        <ele>60.77</ele>
        <time>2015-01-20T12:26:12Z</time>
      </trkpt>
      <trkpt lat="43.50335" lon="6.93847">
        <ele>61.77</ele>
        <time>2015-01-20T12:26:17Z</time>
      </trkpt>
      <trkpt lat="43.50312" lon="6.93829">
        <ele>64.2</ele>
        <time>2015-01-20T12:26:31Z</time>
      </trkpt>
      <trkpt lat="43.50282" lon="6.93817">
        <ele>66.79</ele>
        <time>2015-01-20T12:26:48Z</time>
      </trkpt>
      <trkpt lat="43.50253" lon="6.93819">
        <ele>69.31</ele>
        <time>2015-01-20T12:27:04Z</time>
      </trkpt>
      <trkpt lat="43.50229" lon="6.9383">
        <ele>71.41</ele>
        <time>2015-01-20T12:27:16Z</time>
      </trkpt>
      <trkpt lat="43.50199" lon="6.93843">
        <ele>73.24</ele>
        <time>2015-01-20T12:27:30Z</time>
      </trkpt>
      <trkpt lat="43.50172" lon="6.93833">
        <ele>75.77</ele>
        <time>2015-01-20T12:27:43Z</time>
      </trkpt>
      <trkpt lat="43.50139" lon="6.9385">
        <ele>78.88</ele>
        <time>2015-01-20T12:27:59Z</time>
      </trkpt>
      <trkpt lat="43.5012" lon="6.9385">
        <ele>82.02</ele>
        <time>2015-01-20T12:28:11Z</time>
      </trkpt>
      <trkpt lat="43.50114" lon="6.93854">
        <ele>82.92</ele>
        <time>2015-01-20T12:28:15Z</time>
      </trkpt>
      <trkpt lat="43.501" lon="6.93887">
        <ele>86.19</ele>
        <time>2015-01-20T12:28:30Z</time>
      </trkpt>
      <trkpt lat="43.50091" lon="6.93916">
        <ele>89.26</ele>
        <time>2015-01-20T12:28:44Z</time>
      </trkpt>
      <trkpt lat="43.50085" lon="6.9394">
        <ele>92.5</ele>
        <time>2015-01-20T12:28:56Z</time>
      </trkpt>
      <trkpt lat="43.50084" lon="6.93969">
        <ele>95.6</ele>
        <time>2015-01-20T12:29:13Z</time>
      </trkpt>
      <trkpt lat="43.50086" lon="6.93969">
        <ele>96.04</ele>
        <time>2015-01-20T12:29:19Z</time>
      </trkpt>
      <trkpt lat="43.50074" lon="6.93955">
        <ele>95.17</ele>
        <time>2015-01-20T12:29:27Z</time>
      </trkpt>
      <trkpt lat="43.50074" lon="6.9396">
        <ele>95.21</ele>
        <time>2015-01-20T12:29:29Z</time>
      </trkpt>
      <trkpt lat="43.50076" lon="6.93963">
        <ele>95.34</ele>
        <time>2015-01-20T12:29:31Z</time>
      </trkpt>
      <trkpt lat="43.50079" lon="6.93966">
        <ele>95.42</ele>
        <time>2015-01-20T12:29:35Z</time>
      </trkpt>
      <trkpt lat="43.5009" lon="6.93967">
        <ele>95.25</ele>
        <time>2015-01-20T12:29:41Z</time>
      </trkpt>
      <trkpt lat="43.50094" lon="6.93962">
        <ele>96.29</ele>
        <time>2015-01-20T12:29:46Z</time>
      </trkpt>
      <trkpt lat="43.50107" lon="6.9392">
        <ele>98.25</ele>
        <time>2015-01-20T12:30:02Z</time>
      </trkpt>
      <trkpt lat="43.50135" lon="6.93921">
        <ele>99.8</ele>
        <time>2015-01-20T12:30:14Z</time>
      </trkpt>
      <trkpt lat="43.50158" lon="6.9394">
        <ele>102.64</ele>
        <time>2015-01-20T12:30:27Z</time>
      </trkpt>
      <trkpt lat="43.50191" lon="6.93947">
        <ele>105.84</ele>
        <time>2015-01-20T12:30:41Z</time>
      </trkpt>
      <trkpt lat="43.50209" lon="6.93966">
        <ele>109.09</ele>
        <time>2015-01-20T12:30:54Z</time>
      </trkpt>
      <trkpt lat="43.50232" lon="6.93978">
        <ele>112.22</ele>
        <time>2015-01-20T12:31:07Z</time>
      </trkpt>
      <trkpt lat="43.50255" lon="6.93979">
        <ele>115.51</ele>
        <time>2015-01-20T12:31:20Z</time>
      </trkpt>
      <trkpt lat="43.50275" lon="6.93996">
        <ele>118.12</ele>
        <time>2015-01-20T12:31:34Z</time>
      </trkpt>
      <trkpt lat="43.50294" lon="6.94025">
        <ele>120.94</ele>
        <time>2015-01-20T12:31:49Z</time>
      </trkpt>
      <trkpt lat="43.50302" lon="6.94042">
        <ele>122.89</ele>
        <time>2015-01-20T12:31:57Z</time>
      </trkpt>
      <trkpt lat="43.50298" lon="6.94048">
        <ele>123.79</ele>
        <time>2015-01-20T12:32:01Z</time>
      </trkpt>
      <trkpt lat="43.5028" lon="6.94059">
        <ele>127.11</ele>
        <time>2015-01-20T12:32:14Z</time>
      </trkpt>
      <trkpt lat="43.50266" lon="6.9407">
        <ele>130.12</ele>
        <time>2015-01-20T12:32:24Z</time>
      </trkpt>
      <trkpt lat="43.50248" lon="6.94085">
        <ele>133.27</ele>
        <time>2015-01-20T12:32:36Z</time>
      </trkpt>
      <trkpt lat="43.50223" lon="6.94105">
        <ele>136.12</ele>
        <time>2015-01-20T12:32:51Z</time>
      </trkpt>
      <trkpt lat="43.50198" lon="6.94108">
        <ele>138.13</ele>
        <time>2015-01-20T12:33:05Z</time>
      </trkpt>
      <trkpt lat="43.50175" lon="6.94111">
        <ele>140.63</ele>
        <time>2015-01-20T12:33:19Z</time>
      </trkpt>
      <trkpt lat="43.5015" lon="6.94113">
        <ele>143.68</ele>
        <time>2015-01-20T12:33:33Z</time>
      </trkpt>
      <trkpt lat="43.50129" lon="6.94115">
        <ele>146.97</ele>
        <time>2015-01-20T12:33:47Z</time>
      </trkpt>
      <trkpt lat="43.50117" lon="6.94128">
        <ele>149.89</ele>
        <time>2015-01-20T12:33:59Z</time>
      </trkpt>
      <trkpt lat="43.50116" lon="6.94128">
        <ele>149.9</ele>
        <time>2015-01-20T12:34:03Z</time>
      </trkpt>
      <trkpt lat="43.50113" lon="6.94133">
        <ele>150.07</ele>
        <time>2015-01-20T12:36:14Z</time>
      </trkpt>
      <trkpt lat="43.50084" lon="6.94138">
        <ele>152.47</ele>
        <time>2015-01-20T12:36:32Z</time>
      </trkpt>
      <trkpt lat="43.50084" lon="6.94139">
        <ele>152.37</ele>
        <time>2015-01-20T12:36:34Z</time>
      </trkpt>
      <trkpt lat="43.50077" lon="6.9414">
        <ele>152.98</ele>
        <time>2015-01-20T12:36:43Z</time>
      </trkpt>
      <trkpt lat="43.5005" lon="6.94137">
        <ele>156.03</ele>
        <time>2015-01-20T12:37:00Z</time>
      </trkpt>
      <trkpt lat="43.5003" lon="6.94146">
        <ele>158.17</ele>
        <time>2015-01-20T12:37:13Z</time>
      </trkpt>
      <trkpt lat="43.50023" lon="6.94157">
        <ele>159.17</ele>
        <time>2015-01-20T12:37:19Z</time>
      </trkpt>
      <trkpt lat="43.50015" lon="6.94157">
        <ele>160.48</ele>
        <time>2015-01-20T12:37:25Z</time>
      </trkpt>
      <trkpt lat="43.49995" lon="6.94145">
        <ele>163.4</ele>
        <time>2015-01-20T12:37:39Z</time>
      </trkpt>
      <trkpt lat="43.49975" lon="6.94136">
        <ele>166.65</ele>
        <time>2015-01-20T12:37:52Z</time>
      </trkpt>
      <trkpt lat="43.49953" lon="6.94131">
        <ele>169.56</ele>
        <time>2015-01-20T12:38:06Z</time>
      </trkpt>
      <trkpt lat="43.4993" lon="6.94122">
        <ele>172.73</ele>
        <time>2015-01-20T12:38:20Z</time>
      </trkpt>
      <trkpt lat="43.49905" lon="6.94119">
        <ele>175.79</ele>
        <time>2015-01-20T12:38:35Z</time>
      </trkpt>
      <trkpt lat="43.49877" lon="6.94124">
        <ele>178.79</ele>
        <time>2015-01-20T12:38:51Z</time>
      </trkpt>
      <trkpt lat="43.49854" lon="6.94141">
        <ele>181.81</ele>
        <time>2015-01-20T12:39:06Z</time>
      </trkpt>
      <trkpt lat="43.49838" lon="6.94161">
        <ele>184.28</ele>
        <time>2015-01-20T12:39:19Z</time>
      </trkpt>
      <trkpt lat="43.49819" lon="6.94186">
        <ele>186.56</ele>
        <time>2015-01-20T12:39:33Z</time>
      </trkpt>
      <trkpt lat="43.49797" lon="6.94206">
        <ele>188.97</ele>
        <time>2015-01-20T12:39:47Z</time>
      </trkpt>
      <trkpt lat="43.49775" lon="6.9423">
        <ele>192.01</ele>
        <time>2015-01-20T12:40:03Z</time>
      </trkpt>
      <trkpt lat="43.49765" lon="6.94257">
        <ele>194</ele>
        <time>2015-01-20T12:40:17Z</time>
      </trkpt>
      <trkpt lat="43.49764" lon="6.94275">
        <ele>194.22</ele>
        <time>2015-01-20T12:40:28Z</time>
      </trkpt>
      <trkpt lat="43.49764" lon="6.94299">
        <ele>193.19</ele>
        <time>2015-01-20T12:40:41Z</time>
      </trkpt>
      <trkpt lat="43.49779" lon="6.94336">
        <ele>192.31</ele>
        <time>2015-01-20T12:40:52Z</time>
      </trkpt>
      <trkpt lat="43.49791" lon="6.94368">
        <ele>195.49</ele>
        <time>2015-01-20T12:41:03Z</time>
      </trkpt>
      <trkpt lat="43.49798" lon="6.94418">
        <ele>196.67</ele>
        <time>2015-01-20T12:41:19Z</time>
      </trkpt>
      <trkpt lat="43.49801" lon="6.94453">
        <ele>197.19</ele>
        <time>2015-01-20T12:41:33Z</time>
      </trkpt>
      <trkpt lat="43.49816" lon="6.94507">
        <ele>196.63</ele>
        <time>2015-01-20T12:41:51Z</time>
      </trkpt>
      <trkpt lat="43.49833" lon="6.94551">
        <ele>197.19</ele>
        <time>2015-01-20T12:42:05Z</time>
      </trkpt>
      <trkpt lat="43.4986" lon="6.94605">
        <ele>198.02</ele>
        <time>2015-01-20T12:42:22Z</time>
      </trkpt>
      <trkpt lat="43.49889" lon="6.94655">
        <ele>199.21</ele>
        <time>2015-01-20T12:42:38Z</time>
      </trkpt>
      <trkpt lat="43.49914" lon="6.94695">
        <ele>199.28</ele>
        <time>2015-01-20T12:42:51Z</time>
      </trkpt>
      <trkpt lat="43.4995" lon="6.9473">
        <ele>200.4</ele>
        <time>2015-01-20T12:43:07Z</time>
      </trkpt>
      <trkpt lat="43.49984" lon="6.94756">
        <ele>200.38</ele>
        <time>2015-01-20T12:43:21Z</time>
      </trkpt>
      <trkpt lat="43.50026" lon="6.94783">
        <ele>201.4</ele>
        <time>2015-01-20T12:43:37Z</time>
      </trkpt>
      <trkpt lat="43.50056" lon="6.94793">
        <ele>201.96</ele>
        <time>2015-01-20T12:43:49Z</time>
      </trkpt>
      <trkpt lat="43.50058" lon="6.94794">
        <ele>202.54</ele>
        <time>2015-01-20T12:43:56Z</time>
      </trkpt>
      <trkpt lat="43.49988" lon="6.94595">
        <ele>247.22</ele>
        <time>2015-01-20T12:48:26Z</time>
      </trkpt>
      <trkpt lat="43.49981" lon="6.9459">
        <ele>249.24</ele>
        <time>2015-01-20T12:48:37Z</time>
      </trkpt>
      <trkpt lat="43.49961" lon="6.9456">
        <ele>246.84</ele>
        <time>2015-01-20T12:54:03Z</time>
      </trkpt>
      <trkpt lat="43.49952" lon="6.94548">
        <ele>246.48</ele>
        <time>2015-01-20T12:54:07Z</time>
      </trkpt>
      <trkpt lat="43.49951" lon="6.94523">
        <ele>243.26</ele>
        <time>2015-01-20T12:54:13Z</time>
      </trkpt>
      <trkpt lat="43.49946" lon="6.94517">
        <ele>242.55</ele>
        <time>2015-01-20T12:54:15Z</time>
      </trkpt>
      <trkpt lat="43.49943" lon="6.94515">
        <ele>242.99</ele>
        <time>2015-01-20T12:54:16Z</time>
      </trkpt>
      <trkpt lat="43.49928" lon="6.94507">
        <ele>243.11</ele>
        <time>2015-01-20T12:54:20Z</time>
      </trkpt>
      <trkpt lat="43.49919" lon="6.94494">
        <ele>241.66</ele>
        <time>2015-01-20T12:54:23Z</time>
      </trkpt>
      <trkpt lat="43.49916" lon="6.94489">
        <ele>241.49</ele>
        <time>2015-01-20T12:54:24Z</time>
      </trkpt>
      <trkpt lat="43.49908" lon="6.94461">
        <ele>238.04</ele>
        <time>2015-01-20T12:54:32Z</time>
      </trkpt>
      <trkpt lat="43.49908" lon="6.94461">
        <ele>238.24</ele>
        <time>2015-01-20T12:54:37Z</time>
      </trkpt>
      <trkpt lat="43.49907" lon="6.9448">
        <ele>239.22</ele>
        <time>2015-01-20T12:55:17Z</time>
      </trkpt>
      <trkpt lat="43.49921" lon="6.9451">
        <ele>241.58</ele>
        <time>2015-01-20T12:55:39Z</time>
      </trkpt>
      <trkpt lat="43.49926" lon="6.94515">
        <ele>242.02</ele>
        <time>2015-01-20T12:55:47Z</time>
      </trkpt>
      <trkpt lat="43.49923" lon="6.94516">
        <ele>241.94</ele>
        <time>2015-01-20T12:55:53Z</time>
      </trkpt>
      <trkpt lat="43.49917" lon="6.94507">
        <ele>241.42</ele>
        <time>2015-01-20T12:56:04Z</time>
      </trkpt>
      <trkpt lat="43.49912" lon="6.94496">
        <ele>240.44</ele>
        <time>2015-01-20T12:56:06Z</time>
      </trkpt>
      <trkpt lat="43.49902" lon="6.94467">
        <ele>237.49</ele>
        <time>2015-01-20T12:56:11Z</time>
      </trkpt>
      <trkpt lat="43.49893" lon="6.94443">
        <ele>234.77</ele>
        <time>2015-01-20T12:56:16Z</time>
      </trkpt>
      <trkpt lat="43.49908" lon="6.94425">
        <ele>230.85</ele>
        <time>2015-01-20T12:56:23Z</time>
      </trkpt>
      <trkpt lat="43.49905" lon="6.94413">
        <ele>227.69</ele>
        <time>2015-01-20T12:56:25Z</time>
      </trkpt>
      <trkpt lat="43.49904" lon="6.94407">
        <ele>226.61</ele>
        <time>2015-01-20T12:56:26Z</time>
      </trkpt>
      <trkpt lat="43.4991" lon="6.94365">
        <ele>223.22</ele>
        <time>2015-01-20T12:56:34Z</time>
      </trkpt>
      <trkpt lat="43.4993" lon="6.94343">
        <ele>219.64</ele>
        <time>2015-01-20T12:56:41Z</time>
      </trkpt>
      <trkpt lat="43.49936" lon="6.9433">
        <ele>216.18</ele>
        <time>2015-01-20T12:56:44Z</time>
      </trkpt>
      <trkpt lat="43.49957" lon="6.94335">
        <ele>211.29</ele>
        <time>2015-01-20T12:56:48Z</time>
      </trkpt>
      <trkpt lat="43.49977" lon="6.94342">
        <ele>207.71</ele>
        <time>2015-01-20T12:56:51Z</time>
      </trkpt>
      <trkpt lat="43.4999" lon="6.94347">
        <ele>205.76</ele>
        <time>2015-01-20T12:56:53Z</time>
      </trkpt>
      <trkpt lat="43.50009" lon="6.94352">
        <ele>201.41</ele>
        <time>2015-01-20T12:56:56Z</time>
      </trkpt>
      <trkpt lat="43.50034" lon="6.94361">
        <ele>197.05</ele>
        <time>2015-01-20T12:57:00Z</time>
      </trkpt>
      <trkpt lat="43.50043" lon="6.94362">
        <ele>196.32</ele>
        <time>2015-01-20T12:57:02Z</time>
      </trkpt>
      <trkpt lat="43.50039" lon="6.94333">
        <ele>192.93</ele>
        <time>2015-01-20T12:57:08Z</time>
      </trkpt>
      <trkpt lat="43.50041" lon="6.9432">
        <ele>189.55</ele>
        <time>2015-01-20T12:57:11Z</time>
      </trkpt>
      <trkpt lat="43.50051" lon="6.94305">
        <ele>185.5</ele>
        <time>2015-01-20T12:57:16Z</time>
      </trkpt>
      <trkpt lat="43.50065" lon="6.94297">
        <ele>181.58</ele>
        <time>2015-01-20T12:57:21Z</time>
      </trkpt>
      <trkpt lat="43.50068" lon="6.94302">
        <ele>181.92</ele>
        <time>2015-01-20T12:57:31Z</time>
      </trkpt>
      <trkpt lat="43.50072" lon="6.94292">
        <ele>179.27</ele>
        <time>2015-01-20T12:57:43Z</time>
      </trkpt>
      <trkpt lat="43.5007" lon="6.94266">
        <ele>175.33</ele>
        <time>2015-01-20T12:57:46Z</time>
      </trkpt>
      <trkpt lat="43.50065" lon="6.94249">
        <ele>171.97</ele>
        <time>2015-01-20T12:57:48Z</time>
      </trkpt>
      <trkpt lat="43.5006" lon="6.9424">
        <ele>170.35</ele>
        <time>2015-01-20T12:57:49Z</time>
      </trkpt>
      <trkpt lat="43.50016" lon="6.94208">
        <ele>169.62</ele>
        <time>2015-01-20T12:57:58Z</time>
      </trkpt>
      <trkpt lat="43.49993" lon="6.94186">
        <ele>168.89</ele>
        <time>2015-01-20T12:58:05Z</time>
      </trkpt>
      <trkpt lat="43.49986" lon="6.9418">
        <ele>169.93</ele>
        <time>2015-01-20T12:58:07Z</time>
      </trkpt>
      <trkpt lat="43.49969" lon="6.94161">
        <ele>169.53</ele>
        <time>2015-01-20T12:58:13Z</time>
      </trkpt>
      <trkpt lat="43.49937" lon="6.94145">
        <ele>169.87</ele>
        <time>2015-01-20T12:58:22Z</time>
      </trkpt>
      <trkpt lat="43.49914" lon="6.9414">
        <ele>171.76</ele>
        <time>2015-01-20T12:58:30Z</time>
      </trkpt>
      <trkpt lat="43.49902" lon="6.94126">
        <ele>172.15</ele>
        <time>2015-01-20T12:58:35Z</time>
      </trkpt>
      <trkpt lat="43.49876" lon="6.94127">
        <ele>173.43</ele>
        <time>2015-01-20T12:58:45Z</time>
      </trkpt>
      <trkpt lat="43.49857" lon="6.94129">
        <ele>173.9</ele>
        <time>2015-01-20T12:58:54Z</time>
      </trkpt>
      <trkpt lat="43.49854" lon="6.94128">
        <ele>174.04</ele>
        <time>2015-01-20T12:58:56Z</time>
      </trkpt>
      <trkpt lat="43.49838" lon="6.94139">
        <ele>174.54</ele>
        <time>2015-01-20T12:59:08Z</time>
      </trkpt>
      <trkpt lat="43.4982" lon="6.94159">
        <ele>175.2</ele>
        <time>2015-01-20T12:59:18Z</time>
      </trkpt>
      <trkpt lat="43.49787" lon="6.94182">
        <ele>176.68</ele>
        <time>2015-01-20T12:59:29Z</time>
      </trkpt>
      <trkpt lat="43.49772" lon="6.94171">
        <ele>173.85</ele>
        <time>2015-01-20T12:59:35Z</time>
      </trkpt>
      <trkpt lat="43.49755" lon="6.94167">
        <ele>169.93</ele>
        <time>2015-01-20T12:59:40Z</time>
      </trkpt>
      <trkpt lat="43.49749" lon="6.94167">
        <ele>169.33</ele>
        <time>2015-01-20T12:59:41Z</time>
      </trkpt>
      <trkpt lat="43.49725" lon="6.94165">
        <ele>167.45</ele>
        <time>2015-01-20T12:59:46Z</time>
      </trkpt>
      <trkpt lat="43.49726" lon="6.94168">
        <ele>167.15</ele>
        <time>2015-01-20T12:59:51Z</time>
      </trkpt>
      <trkpt lat="43.49731" lon="6.94167">
        <ele>167.64</ele>
        <time>2015-01-20T12:59:57Z</time>
      </trkpt>
      <trkpt lat="43.4973" lon="6.94151">
        <ele>164.1</ele>
        <time>2015-01-20T13:00:04Z</time>
      </trkpt>
      <trkpt lat="43.49727" lon="6.94147">
        <ele>163.01</ele>
        <time>2015-01-20T13:00:06Z</time>
      </trkpt>
      <trkpt lat="43.49717" lon="6.9414">
        <ele>160.35</ele>
        <time>2015-01-20T13:00:09Z</time>
      </trkpt>
      <trkpt lat="43.49706" lon="6.94116">
        <ele>156.4</ele>
        <time>2015-01-20T13:00:14Z</time>
      </trkpt>
      <trkpt lat="43.49692" lon="6.94103">
        <ele>154.33</ele>
        <time>2015-01-20T13:00:18Z</time>
      </trkpt>
      <trkpt lat="43.49689" lon="6.941">
        <ele>153.98</ele>
        <time>2015-01-20T13:00:19Z</time>
      </trkpt>
      <trkpt lat="43.49686" lon="6.94095">
        <ele>152.55</ele>
        <time>2015-01-20T13:00:28Z</time>
      </trkpt>
      <trkpt lat="43.49686" lon="6.94097">
        <ele>153.31</ele>
        <time>2015-01-20T13:00:54Z</time>
      </trkpt>
      <trkpt lat="43.49682" lon="6.94095">
        <ele>152.51</ele>
        <time>2015-01-20T13:00:56Z</time>
      </trkpt>
      <trkpt lat="43.49675" lon="6.94089">
        <ele>150.37</ele>
        <time>2015-01-20T13:01:05Z</time>
      </trkpt>
      <trkpt lat="43.49675" lon="6.94078">
        <ele>149.63</ele>
        <time>2015-01-20T13:01:23Z</time>
      </trkpt>
      <trkpt lat="43.49676" lon="6.94049">
        <ele>146.29</ele>
        <time>2015-01-20T13:01:29Z</time>
      </trkpt>
      <trkpt lat="43.49678" lon="6.94013">
        <ele>145.33</ele>
        <time>2015-01-20T13:01:37Z</time>
      </trkpt>
      <trkpt lat="43.4968" lon="6.93999">
        <ele>143.75</ele>
        <time>2015-01-20T13:01:40Z</time>
      </trkpt>
      <trkpt lat="43.49681" lon="6.93969">
        <ele>138.95</ele>
        <time>2015-01-20T13:01:46Z</time>
      </trkpt>
      <trkpt lat="43.49674" lon="6.9395">
        <ele>135.85</ele>
        <time>2015-01-20T13:01:51Z</time>
      </trkpt>
      <trkpt lat="43.49673" lon="6.93948">
        <ele>135.24</ele>
        <time>2015-01-20T13:01:52Z</time>
      </trkpt>
      <trkpt lat="43.49668" lon="6.93943">
        <ele>133.94</ele>
        <time>2015-01-20T13:01:55Z</time>
      </trkpt>
      <trkpt lat="43.49658" lon="6.93939">
        <ele>131.9</ele>
        <time>2015-01-20T13:02:01Z</time>
      </trkpt>
      <trkpt lat="43.49647" lon="6.93926">
        <ele>128.21</ele>
        <time>2015-01-20T13:02:05Z</time>
      </trkpt>
      <trkpt lat="43.49646" lon="6.93905">
        <ele>127.16</ele>
        <time>2015-01-20T13:02:09Z</time>
      </trkpt>
      <trkpt lat="43.49649" lon="6.93896">
        <ele>125.07</ele>
        <time>2015-01-20T13:02:11Z</time>
      </trkpt>
      <trkpt lat="43.49654" lon="6.93888">
        <ele>122.01</ele>
        <time>2015-01-20T13:02:13Z</time>
      </trkpt>
      <trkpt lat="43.49668" lon="6.93869">
        <ele>118.31</ele>
        <time>2015-01-20T13:02:18Z</time>
      </trkpt>
      <trkpt lat="43.49669" lon="6.93864">
        <ele>118.14</ele>
        <time>2015-01-20T13:02:19Z</time>
      </trkpt>
      <trkpt lat="43.49675" lon="6.93842">
        <ele>114.32</ele>
        <time>2015-01-20T13:02:23Z</time>
      </trkpt>
      <trkpt lat="43.49679" lon="6.93832">
        <ele>113.84</ele>
        <time>2015-01-20T13:02:30Z</time>
      </trkpt>
      <trkpt lat="43.49679" lon="6.93832">
        <ele>113.78</ele>
        <time>2015-01-20T13:02:32Z</time>
      </trkpt>
      <trkpt lat="43.49682" lon="6.9382">
        <ele>112.01</ele>
        <time>2015-01-20T13:02:38Z</time>
      </trkpt>
      <trkpt lat="43.49694" lon="6.93801">
        <ele>108.94</ele>
        <time>2015-01-20T13:02:42Z</time>
      </trkpt>
      <trkpt lat="43.497" lon="6.9379">
        <ele>106.83</ele>
        <time>2015-01-20T13:02:44Z</time>
      </trkpt>
      <trkpt lat="43.49711" lon="6.93775">
        <ele>104.4</ele>
        <time>2015-01-20T13:02:47Z</time>
      </trkpt>
      <trkpt lat="43.4972" lon="6.93765">
        <ele>102.99</ele>
        <time>2015-01-20T13:02:50Z</time>
      </trkpt>
      <trkpt lat="43.49721" lon="6.93756">
        <ele>100.67</ele>
        <time>2015-01-20T13:02:59Z</time>
      </trkpt>
      <trkpt lat="43.4974" lon="6.93755">
        <ele>96.64</ele>
        <time>2015-01-20T13:03:06Z</time>
      </trkpt>
      <trkpt lat="43.4975" lon="6.93757">
        <ele>92.93</ele>
        <time>2015-01-20T13:03:09Z</time>
      </trkpt>
      <trkpt lat="43.49754" lon="6.93758">
        <ele>92.73</ele>
        <time>2015-01-20T13:03:10Z</time>
      </trkpt>
      <trkpt lat="43.49767" lon="6.93761">
        <ele>90.28</ele>
        <time>2015-01-20T13:03:15Z</time>
      </trkpt>
      <trkpt lat="43.49772" lon="6.93755">
        <ele>86.22</ele>
        <time>2015-01-20T13:03:19Z</time>
      </trkpt>
      <trkpt lat="43.49778" lon="6.93746">
        <ele>82.29</ele>
        <time>2015-01-20T13:03:22Z</time>
      </trkpt>
      <trkpt lat="43.4978" lon="6.93743">
        <ele>81.22</ele>
        <time>2015-01-20T13:03:23Z</time>
      </trkpt>
      <trkpt lat="43.49785" lon="6.93734">
        <ele>78.76</ele>
        <time>2015-01-20T13:03:32Z</time>
      </trkpt>
      <trkpt lat="43.49785" lon="6.93734">
        <ele>78.74</ele>
        <time>2015-01-20T13:03:34Z</time>
      </trkpt>
      <trkpt lat="43.49785" lon="6.93724">
        <ele>77.77</ele>
        <time>2015-01-20T13:04:06Z</time>
      </trkpt>
      <trkpt lat="43.49787" lon="6.93705">
        <ele>74.41</ele>
        <time>2015-01-20T13:04:11Z</time>
      </trkpt>
      <trkpt lat="43.49789" lon="6.93702">
        <ele>73.82</ele>
        <time>2015-01-20T13:04:12Z</time>
      </trkpt>
      <trkpt lat="43.49797" lon="6.93692">
        <ele>69.64</ele>
        <time>2015-01-20T13:04:18Z</time>
      </trkpt>
      <trkpt lat="43.49801" lon="6.93684">
        <ele>66.36</ele>
        <time>2015-01-20T13:04:23Z</time>
      </trkpt>
      <trkpt lat="43.498" lon="6.93683">
        <ele>66.12</ele>
        <time>2015-01-20T13:04:24Z</time>
      </trkpt>
      <trkpt lat="43.49798" lon="6.93678">
        <ele>64.41</ele>
        <time>2015-01-20T13:04:35Z</time>
      </trkpt>
      <trkpt lat="43.49793" lon="6.9367">
        <ele>63.52</ele>
        <time>2015-01-20T13:04:49Z</time>
      </trkpt>
      <trkpt lat="43.49789" lon="6.93667">
        <ele>62.25</ele>
        <time>2015-01-20T13:04:52Z</time>
      </trkpt>
      <trkpt lat="43.49774" lon="6.93657">
        <ele>58.51</ele>
        <time>2015-01-20T13:04:58Z</time>
      </trkpt>
      <trkpt lat="43.49767" lon="6.93632">
        <ele>54.46</ele>
        <time>2015-01-20T13:05:03Z</time>
      </trkpt>
      <trkpt lat="43.49766" lon="6.93628">
        <ele>53.76</ele>
        <time>2015-01-20T13:05:04Z</time>
      </trkpt>
      <trkpt lat="43.49777" lon="6.93625">
        <ele>48.97</ele>
        <time>2015-01-20T13:05:09Z</time>
      </trkpt>
      <trkpt lat="43.49778" lon="6.93625">
        <ele>48.34</ele>
        <time>2015-01-20T13:05:10Z</time>
      </trkpt>
      <trkpt lat="43.49778" lon="6.93628">
        <ele>48.36</ele>
        <time>2015-01-20T13:05:17Z</time>
      </trkpt>
      <trkpt lat="43.4979" lon="6.93631">
        <ele>45.42</ele>
        <time>2015-01-20T13:05:22Z</time>
      </trkpt>
      <trkpt lat="43.49793" lon="6.93629">
        <ele>45.73</ele>
        <time>2015-01-20T13:05:29Z</time>
      </trkpt>
      <trkpt lat="43.49793" lon="6.9363">
        <ele>45.66</ele>
        <time>2015-01-20T13:05:30Z</time>
      </trkpt>
      <trkpt lat="43.49788" lon="6.9363">
        <ele>46.77</ele>
        <time>2015-01-20T13:06:45Z</time>
      </trkpt>
      <trkpt lat="43.49774" lon="6.93612">
        <ele>48.18</ele>
        <time>2015-01-20T13:06:55Z</time>
      </trkpt>
      <trkpt lat="43.4975" lon="6.93573">
        <ele>49.44</ele>
        <time>2015-01-20T13:07:10Z</time>
      </trkpt>
      <trkpt lat="43.49718" lon="6.93562">
        <ele>50.32</ele>
        <time>2015-01-20T13:07:23Z</time>
      </trkpt>
      <trkpt lat="43.49685" lon="6.93582">
        <ele>50.42</ele>
        <time>2015-01-20T13:07:35Z</time>
      </trkpt>
      <trkpt lat="43.49662" lon="6.93624">
        <ele>50</ele>
        <time>2015-01-20T13:07:46Z</time>
      </trkpt>
      <trkpt lat="43.49632" lon="6.93666">
        <ele>50.46</ele>
        <time>2015-01-20T13:07:59Z</time>
      </trkpt>
      <trkpt lat="43.49621" lon="6.93671">
        <ele>50.29</ele>
        <time>2015-01-20T13:08:03Z</time>
      </trkpt>
      <trkpt lat="43.49618" lon="6.93654">
        <ele>50.24</ele>
        <time>2015-01-20T13:08:09Z</time>
      </trkpt>
      <trkpt lat="43.49627" lon="6.93629">
        <ele>52.99</ele>
        <time>2015-01-20T13:08:19Z</time>
      </trkpt>
      <trkpt lat="43.49636" lon="6.93593">
        <ele>54.75</ele>
        <time>2015-01-20T13:08:33Z</time>
      </trkpt>
      <trkpt lat="43.49645" lon="6.93561">
        <ele>57.92</ele>
        <time>2015-01-20T13:08:45Z</time>
      </trkpt>
      <trkpt lat="43.49657" lon="6.93523">
        <ele>60.17</ele>
        <time>2015-01-20T13:09:00Z</time>
      </trkpt>
      <trkpt lat="43.4967" lon="6.93493">
        <ele>62.61</ele>
        <time>2015-01-20T13:09:13Z</time>
      </trkpt>
      <trkpt lat="43.49673" lon="6.93467">
        <ele>65.14</ele>
        <time>2015-01-20T13:09:26Z</time>
      </trkpt>
      <trkpt lat="43.49661" lon="6.93434">
        <ele>67.63</ele>
        <time>2015-01-20T13:09:41Z</time>
      </trkpt>
      <trkpt lat="43.49644" lon="6.93403">
        <ele>70.78</ele>
        <time>2015-01-20T13:09:56Z</time>
      </trkpt>
      <trkpt lat="43.49637" lon="6.93395">
        <ele>71.79</ele>
        <time>2015-01-20T13:10:01Z</time>
      </trkpt>
      <trkpt lat="43.49629" lon="6.93386">
        <ele>71.97</ele>
        <time>2015-01-20T13:10:07Z</time>
      </trkpt>
      <trkpt lat="43.49607" lon="6.93376">
        <ele>74.83</ele>
        <time>2015-01-20T13:10:21Z</time>
      </trkpt>
      <trkpt lat="43.49583" lon="6.93369">
        <ele>77.41</ele>
        <time>2015-01-20T13:10:34Z</time>
      </trkpt>
      <trkpt lat="43.49573" lon="6.93351">
        <ele>78.8</ele>
        <time>2015-01-20T13:10:42Z</time>
      </trkpt>
      <trkpt lat="43.49585" lon="6.93332">
        <ele>79.38</ele>
        <time>2015-01-20T13:10:51Z</time>
      </trkpt>
      <trkpt lat="43.49621" lon="6.93307">
        <ele>80.79</ele>
        <time>2015-01-20T13:11:06Z</time>
      </trkpt>
      <trkpt lat="43.49624" lon="6.9326">
        <ele>83.3</ele>
        <time>2015-01-20T13:11:19Z</time>
      </trkpt>
      <trkpt lat="43.49598" lon="6.93226">
        <ele>85.04</ele>
        <time>2015-01-20T13:11:32Z</time>
      </trkpt>
      <trkpt lat="43.49579" lon="6.932">
        <ele>84.45</ele>
        <time>2015-01-20T13:11:40Z</time>
      </trkpt>
      <trkpt lat="43.49603" lon="6.93167">
        <ele>86.18</ele>
        <time>2015-01-20T13:11:53Z</time>
      </trkpt>
      <trkpt lat="43.49628" lon="6.93132">
        <ele>89.36</ele>
        <time>2015-01-20T13:12:07Z</time>
      </trkpt>
      <trkpt lat="43.49639" lon="6.93088">
        <ele>91.41</ele>
        <time>2015-01-20T13:12:21Z</time>
      </trkpt>
      <trkpt lat="43.49636" lon="6.9305">
        <ele>94.21</ele>
        <time>2015-01-20T13:12:34Z</time>
      </trkpt>
      <trkpt lat="43.49608" lon="6.93031">
        <ele>96.33</ele>
        <time>2015-01-20T13:12:47Z</time>
      </trkpt>
      <trkpt lat="43.49594" lon="6.93003">
        <ele>97.07</ele>
        <time>2015-01-20T13:12:58Z</time>
      </trkpt>
      <trkpt lat="43.49593" lon="6.92971">
        <ele>99.03</ele>
        <time>2015-01-20T13:13:10Z</time>
      </trkpt>
      <trkpt lat="43.49574" lon="6.92929">
        <ele>101.79</ele>
        <time>2015-01-20T13:13:26Z</time>
      </trkpt>
      <trkpt lat="43.49564" lon="6.92904">
        <ele>103.62</ele>
        <time>2015-01-20T13:13:37Z</time>
      </trkpt>
      <trkpt lat="43.4954" lon="6.92877">
        <ele>106.91</ele>
        <time>2015-01-20T13:13:53Z</time>
      </trkpt>
      <trkpt lat="43.49521" lon="6.92852">
        <ele>109.3</ele>
        <time>2015-01-20T13:14:07Z</time>
      </trkpt>
      <trkpt lat="43.49506" lon="6.92817">
        <ele>110.93</ele>
        <time>2015-01-20T13:14:22Z</time>
      </trkpt>
      <trkpt lat="43.49499" lon="6.92789">
        <ele>112.43</ele>
        <time>2015-01-20T13:14:33Z</time>
      </trkpt>
      <trkpt lat="43.49497" lon="6.92786">
        <ele>112.68</ele>
        <time>2015-01-20T13:14:35Z</time>
      </trkpt>
      <trkpt lat="43.49489" lon="6.92787">
        <ele>113.59</ele>
        <time>2015-01-20T13:14:43Z</time>
      </trkpt>
      <trkpt lat="43.49487" lon="6.92791">
        <ele>113.98</ele>
        <time>2015-01-20T13:14:51Z</time>
      </trkpt>
      <trkpt lat="43.49484" lon="6.92799">
        <ele>115.06</ele>
        <time>2015-01-20T13:16:30Z</time>
      </trkpt>
      <trkpt lat="43.49466" lon="6.92827">
        <ele>117.73</ele>
        <time>2015-01-20T13:16:44Z</time>
      </trkpt>
      <trkpt lat="43.49445" lon="6.92843">
        <ele>120.23</ele>
        <time>2015-01-20T13:16:57Z</time>
      </trkpt>
      <trkpt lat="43.49424" lon="6.92845">
        <ele>123.28</ele>
        <time>2015-01-20T13:17:09Z</time>
      </trkpt>
      <trkpt lat="43.49405" lon="6.92874">
        <ele>126.43</ele>
        <time>2015-01-20T13:17:23Z</time>
      </trkpt>
      <trkpt lat="43.49408" lon="6.92911">
        <ele>128.59</ele>
        <time>2015-01-20T13:17:37Z</time>
      </trkpt>
      <trkpt lat="43.49414" lon="6.92949">
        <ele>131.32</ele>
        <time>2015-01-20T13:17:52Z</time>
      </trkpt>
      <trkpt lat="43.49406" lon="6.9299">
        <ele>133.92</ele>
        <time>2015-01-20T13:18:08Z</time>
      </trkpt>
      <trkpt lat="43.49408" lon="6.93028">
        <ele>136.98</ele>
        <time>2015-01-20T13:18:21Z</time>
      </trkpt>
      <trkpt lat="43.49397" lon="6.93065">
        <ele>140.14</ele>
        <time>2015-01-20T13:18:35Z</time>
      </trkpt>
      <trkpt lat="43.49382" lon="6.93095">
        <ele>142.71</ele>
        <time>2015-01-20T13:18:48Z</time>
      </trkpt>
      <trkpt lat="43.49364" lon="6.93128">
        <ele>146.17</ele>
        <time>2015-01-20T13:19:03Z</time>
      </trkpt>
      <trkpt lat="43.49358" lon="6.93165">
        <ele>148.08</ele>
        <time>2015-01-20T13:19:17Z</time>
      </trkpt>
      <trkpt lat="43.4937" lon="6.93196">
        <ele>150.75</ele>
        <time>2015-01-20T13:19:32Z</time>
      </trkpt>
      <trkpt lat="43.49373" lon="6.93199">
        <ele>151.42</ele>
        <time>2015-01-20T13:19:34Z</time>
      </trkpt>
      <trkpt lat="43.49375" lon="6.93191">
        <ele>153.48</ele>
        <time>2015-01-20T13:19:40Z</time>
      </trkpt>
      <trkpt lat="43.49373" lon="6.93169">
        <ele>154.27</ele>
        <time>2015-01-20T13:19:49Z</time>
      </trkpt>
      <trkpt lat="43.49392" lon="6.93136">
        <ele>156.81</ele>
        <time>2015-01-20T13:20:04Z</time>
      </trkpt>
      <trkpt lat="43.49423" lon="6.93119">
        <ele>159.79</ele>
        <time>2015-01-20T13:20:21Z</time>
      </trkpt>
      <trkpt lat="43.49446" lon="6.93129">
        <ele>162.05</ele>
        <time>2015-01-20T13:20:35Z</time>
      </trkpt>
      <trkpt lat="43.49445" lon="6.93157">
        <ele>161.64</ele>
        <time>2015-01-20T13:20:40Z</time>
      </trkpt>
      <trkpt lat="43.49438" lon="6.9318">
        <ele>160</ele>
        <time>2015-01-20T13:20:44Z</time>
      </trkpt>
      <trkpt lat="43.49404" lon="6.93251">
        <ele>159.69</ele>
        <time>2015-01-20T13:20:58Z</time>
      </trkpt>
      <trkpt lat="43.49401" lon="6.93277">
        <ele>162.77</ele>
        <time>2015-01-20T13:21:06Z</time>
      </trkpt>
      <trkpt lat="43.49401" lon="6.93284">
        <ele>163.44</ele>
        <time>2015-01-20T13:21:08Z</time>
      </trkpt>
      <trkpt lat="43.49401" lon="6.93307">
        <ele>165.16</ele>
        <time>2015-01-20T13:21:15Z</time>
      </trkpt>
      <trkpt lat="43.49399" lon="6.93325">
        <ele>167.29</ele>
        <time>2015-01-20T13:21:22Z</time>
      </trkpt>
      <trkpt lat="43.49393" lon="6.93324">
        <ele>168.81</ele>
        <time>2015-01-20T13:21:26Z</time>
      </trkpt>
      <trkpt lat="43.49371" lon="6.93308">
        <ele>171.43</ele>
        <time>2015-01-20T13:21:40Z</time>
      </trkpt>
      <trkpt lat="43.49347" lon="6.93314">
        <ele>174.18</ele>
        <time>2015-01-20T13:21:55Z</time>
      </trkpt>
      <trkpt lat="43.49342" lon="6.93342">
        <ele>176.07</ele>
        <time>2015-01-20T13:22:08Z</time>
      </trkpt>
      <trkpt lat="43.49355" lon="6.93363">
        <ele>179.18</ele>
        <time>2015-01-20T13:22:20Z</time>
      </trkpt>
      <trkpt lat="43.49357" lon="6.93369">
        <ele>179.84</ele>
        <time>2015-01-20T13:22:23Z</time>
      </trkpt>
      <trkpt lat="43.49355" lon="6.93382">
        <ele>181.26</ele>
        <time>2015-01-20T13:22:29Z</time>
      </trkpt>
      <trkpt lat="43.49351" lon="6.93392">
        <ele>181.45</ele>
        <time>2015-01-20T13:22:40Z</time>
      </trkpt>
      <trkpt lat="43.49349" lon="6.93399">
        <ele>181.64</ele>
        <time>2015-01-20T13:24:37Z</time>
      </trkpt>
      <trkpt lat="43.49347" lon="6.9342">
        <ele>181</ele>
        <time>2015-01-20T13:24:42Z</time>
      </trkpt>
      <trkpt lat="43.49335" lon="6.93414">
        <ele>180.61</ele>
        <time>2015-01-20T13:24:51Z</time>
      </trkpt>
      <trkpt lat="43.49335" lon="6.93413">
        <ele>180.72</ele>
        <time>2015-01-20T13:25:02Z</time>
      </trkpt>
      <trkpt lat="43.49339" lon="6.93419">
        <ele>181.16</ele>
        <time>2015-01-20T13:25:08Z</time>
      </trkpt>
      <trkpt lat="43.4934" lon="6.9342">
        <ele>181.06</ele>
        <time>2015-01-20T13:25:09Z</time>
      </trkpt>
      <trkpt lat="43.49346" lon="6.93428">
        <ele>181.15</ele>
        <time>2015-01-20T13:25:14Z</time>
      </trkpt>
      <trkpt lat="43.49345" lon="6.93439">
        <ele>181.47</ele>
        <time>2015-01-20T13:25:18Z</time>
      </trkpt>
      <trkpt lat="43.49337" lon="6.93485">
        <ele>179.6</ele>
        <time>2015-01-20T13:25:30Z</time>
      </trkpt>
      <trkpt lat="43.49338" lon="6.93511">
        <ele>175.17</ele>
        <time>2015-01-20T13:25:33Z</time>
      </trkpt>
      <trkpt lat="43.49348" lon="6.93553">
        <ele>171.19</ele>
        <time>2015-01-20T13:25:37Z</time>
      </trkpt>
      <trkpt lat="43.49349" lon="6.93577">
        <ele>168.12</ele>
        <time>2015-01-20T13:25:39Z</time>
      </trkpt>
      <trkpt lat="43.49345" lon="6.93598">
        <ele>167.36</ele>
        <time>2015-01-20T13:25:41Z</time>
      </trkpt>
      <trkpt lat="43.49342" lon="6.93607">
        <ele>167.57</ele>
        <time>2015-01-20T13:25:42Z</time>
      </trkpt>
      <trkpt lat="43.49331" lon="6.9364">
        <ele>171.24</ele>
        <time>2015-01-20T13:25:47Z</time>
      </trkpt>
      <trkpt lat="43.49324" lon="6.93668">
        <ele>174.65</ele>
        <time>2015-01-20T13:25:54Z</time>
      </trkpt>
      <trkpt lat="43.49323" lon="6.93672">
        <ele>174.88</ele>
        <time>2015-01-20T13:25:55Z</time>
      </trkpt>
      <trkpt lat="43.49319" lon="6.937">
        <ele>178</ele>
        <time>2015-01-20T13:26:03Z</time>
      </trkpt>
      <trkpt lat="43.49311" lon="6.93743">
        <ele>180.14</ele>
        <time>2015-01-20T13:26:16Z</time>
      </trkpt>
      <trkpt lat="43.4931" lon="6.93791">
        <ele>180.76</ele>
        <time>2015-01-20T13:26:29Z</time>
      </trkpt>
      <trkpt lat="43.49305" lon="6.93845">
        <ele>179.32</ele>
        <time>2015-01-20T13:26:44Z</time>
      </trkpt>
      <trkpt lat="43.49307" lon="6.93868">
        <ele>180.31</ele>
        <time>2015-01-20T13:26:56Z</time>
      </trkpt>
      <trkpt lat="43.49307" lon="6.93868">
        <ele>180.27</ele>
        <time>2015-01-20T13:26:57Z</time>
      </trkpt>
      <trkpt lat="43.49301" lon="6.93863">
        <ele>180.92</ele>
        <time>2015-01-20T13:27:20Z</time>
      </trkpt>
      <trkpt lat="43.49299" lon="6.9386">
        <ele>180.85</ele>
        <time>2015-01-20T13:27:27Z</time>
      </trkpt>
      <trkpt lat="43.49304" lon="6.9385">
        <ele>180.56</ele>
        <time>2015-01-20T13:28:04Z</time>
      </trkpt>
      <trkpt lat="43.4931" lon="6.93807">
        <ele>181.08</ele>
        <time>2015-01-20T13:28:15Z</time>
      </trkpt>
      <trkpt lat="43.49311" lon="6.93753">
        <ele>181.16</ele>
        <time>2015-01-20T13:28:29Z</time>
      </trkpt>
      <trkpt lat="43.49309" lon="6.93742">
        <ele>181.1</ele>
        <time>2015-01-20T13:28:39Z</time>
      </trkpt>
      <trkpt lat="43.49303" lon="6.93732">
        <ele>180.09</ele>
        <time>2015-01-20T13:30:13Z</time>
      </trkpt>
      <trkpt lat="43.49302" lon="6.93728">
        <ele>179.95</ele>
        <time>2015-01-20T13:30:14Z</time>
      </trkpt>
      <trkpt lat="43.493" lon="6.93705">
        <ele>179.57</ele>
        <time>2015-01-20T13:30:18Z</time>
      </trkpt>
      <trkpt lat="43.4931" lon="6.93681">
        <ele>179.38</ele>
        <time>2015-01-20T13:30:23Z</time>
      </trkpt>
      <trkpt lat="43.49314" lon="6.93675">
        <ele>178.52</ele>
        <time>2015-01-20T13:30:31Z</time>
      </trkpt>
      <trkpt lat="43.49317" lon="6.93671">
        <ele>178.36</ele>
        <time>2015-01-20T13:30:52Z</time>
      </trkpt>
      <trkpt lat="43.49329" lon="6.93659">
        <ele>175.69</ele>
        <time>2015-01-20T13:30:56Z</time>
      </trkpt>
      <trkpt lat="43.4934" lon="6.93629">
        <ele>171.84</ele>
        <time>2015-01-20T13:31:01Z</time>
      </trkpt>
      <trkpt lat="43.49343" lon="6.93613">
        <ele>171.36</ele>
        <time>2015-01-20T13:31:03Z</time>
      </trkpt>
      <trkpt lat="43.49351" lon="6.93592">
        <ele>170.56</ele>
        <time>2015-01-20T13:31:06Z</time>
      </trkpt>
      <trkpt lat="43.49348" lon="6.93567">
        <ele>171.02</ele>
        <time>2015-01-20T13:31:14Z</time>
      </trkpt>
      <trkpt lat="43.49352" lon="6.93567">
        <ele>171.31</ele>
        <time>2015-01-20T13:31:19Z</time>
      </trkpt>
      <trkpt lat="43.49351" lon="6.93587">
        <ele>170.96</ele>
        <time>2015-01-20T13:31:27Z</time>
      </trkpt>
      <trkpt lat="43.49331" lon="6.93639">
        <ele>171.77</ele>
        <time>2015-01-20T13:31:40Z</time>
      </trkpt>
      <trkpt lat="43.49324" lon="6.93667">
        <ele>175.13</ele>
        <time>2015-01-20T13:31:48Z</time>
      </trkpt>
      <trkpt lat="43.49317" lon="6.93708">
        <ele>178.23</ele>
        <time>2015-01-20T13:32:00Z</time>
      </trkpt>
      <trkpt lat="43.4931" lon="6.93753">
        <ele>180.59</ele>
        <time>2015-01-20T13:32:14Z</time>
      </trkpt>
      <trkpt lat="43.4931" lon="6.93804">
        <ele>180.94</ele>
        <time>2015-01-20T13:32:26Z</time>
      </trkpt>
      <trkpt lat="43.49296" lon="6.93868">
        <ele>180.44</ele>
        <time>2015-01-20T13:32:41Z</time>
      </trkpt>
      <trkpt lat="43.49293" lon="6.93891">
        <ele>182.77</ele>
        <time>2015-01-20T13:32:50Z</time>
      </trkpt>
      <trkpt lat="43.49291" lon="6.93903">
        <ele>183.72</ele>
        <time>2015-01-20T13:32:56Z</time>
      </trkpt>
      <trkpt lat="43.4929" lon="6.93909">
        <ele>184.15</ele>
        <time>2015-01-20T13:32:59Z</time>
      </trkpt>
      <trkpt lat="43.49292" lon="6.93922">
        <ele>184.87</ele>
        <time>2015-01-20T13:33:06Z</time>
      </trkpt>
      <trkpt lat="43.49286" lon="6.93956">
        <ele>186.26</ele>
        <time>2015-01-20T13:33:21Z</time>
      </trkpt>
      <trkpt lat="43.4928" lon="6.93998">
        <ele>188.6</ele>
        <time>2015-01-20T13:33:36Z</time>
      </trkpt>
      <trkpt lat="43.49282" lon="6.94032">
        <ele>189.3</ele>
        <time>2015-01-20T13:33:52Z</time>
      </trkpt>
      <trkpt lat="43.49277" lon="6.9402">
        <ele>189.39</ele>
        <time>2015-01-20T13:34:06Z</time>
      </trkpt>
      <trkpt lat="43.49277" lon="6.9402">
        <ele>189.23</ele>
        <time>2015-01-20T13:34:09Z</time>
      </trkpt>
      <trkpt lat="43.4928" lon="6.94012">
        <ele>189.6</ele>
        <time>2015-01-20T13:35:12Z</time>
      </trkpt>
      <trkpt lat="43.49282" lon="6.93997">
        <ele>189.43</ele>
        <time>2015-01-20T13:35:18Z</time>
      </trkpt>
      <trkpt lat="43.4929" lon="6.93936">
        <ele>186.16</ele>
        <time>2015-01-20T13:35:30Z</time>
      </trkpt>
      <trkpt lat="43.49296" lon="6.93906">
        <ele>184.61</ele>
        <time>2015-01-20T13:35:35Z</time>
      </trkpt>
      <trkpt lat="43.49298" lon="6.93901">
        <ele>184.61</ele>
        <time>2015-01-20T13:35:36Z</time>
      </trkpt>
      <trkpt lat="43.493" lon="6.93887">
        <ele>182.93</ele>
        <time>2015-01-20T13:35:38Z</time>
      </trkpt>
      <trkpt lat="43.49307" lon="6.93856">
        <ele>179.88</ele>
        <time>2015-01-20T13:35:43Z</time>
      </trkpt>
      <trkpt lat="43.49305" lon="6.93854">
        <ele>180.68</ele>
        <time>2015-01-20T13:35:45Z</time>
      </trkpt>
      <trkpt lat="43.49302" lon="6.93854">
        <ele>180.7</ele>
        <time>2015-01-20T13:35:52Z</time>
      </trkpt>
      <trkpt lat="43.49306" lon="6.93844">
        <ele>180.97</ele>
        <time>2015-01-20T13:36:05Z</time>
      </trkpt>
      <trkpt lat="43.49306" lon="6.93837">
        <ele>181.04</ele>
        <time>2015-01-20T13:36:07Z</time>
      </trkpt>
      <trkpt lat="43.49312" lon="6.93761">
        <ele>180.6</ele>
        <time>2015-01-20T13:36:23Z</time>
      </trkpt>
      <trkpt lat="43.493" lon="6.93713">
        <ele>180.35</ele>
        <time>2015-01-20T13:36:34Z</time>
      </trkpt>
      <trkpt lat="43.49315" lon="6.93679">
        <ele>179.1</ele>
        <time>2015-01-20T13:36:45Z</time>
      </trkpt>
      <trkpt lat="43.49332" lon="6.93661">
        <ele>176.77</ele>
        <time>2015-01-20T13:36:50Z</time>
      </trkpt>
      <trkpt lat="43.49341" lon="6.93635">
        <ele>172.95</ele>
        <time>2015-01-20T13:36:54Z</time>
      </trkpt>
      <trkpt lat="43.49343" lon="6.93617">
        <ele>171.21</ele>
        <time>2015-01-20T13:36:56Z</time>
      </trkpt>
      <trkpt lat="43.4935" lon="6.93592">
        <ele>170.02</ele>
        <time>2015-01-20T13:36:59Z</time>
      </trkpt>
      <trkpt lat="43.49364" lon="6.93565">
        <ele>169.73</ele>
        <time>2015-01-20T13:37:03Z</time>
      </trkpt>
      <trkpt lat="43.49371" lon="6.93552">
        <ele>170.76</ele>
        <time>2015-01-20T13:37:06Z</time>
      </trkpt>
      <trkpt lat="43.49377" lon="6.93544">
        <ele>171.59</ele>
        <time>2015-01-20T13:37:08Z</time>
      </trkpt>
      <trkpt lat="43.49381" lon="6.93541">
        <ele>171.69</ele>
        <time>2015-01-20T13:37:09Z</time>
      </trkpt>
      <trkpt lat="43.49389" lon="6.93528">
        <ele>171.03</ele>
        <time>2015-01-20T13:37:12Z</time>
      </trkpt>
      <trkpt lat="43.49398" lon="6.93509">
        <ele>168.47</ele>
        <time>2015-01-20T13:37:16Z</time>
      </trkpt>
      <trkpt lat="43.49408" lon="6.9349">
        <ele>164.79</ele>
        <time>2015-01-20T13:37:21Z</time>
      </trkpt>
      <trkpt lat="43.49418" lon="6.93458">
        <ele>165.58</ele>
        <time>2015-01-20T13:37:31Z</time>
      </trkpt>
      <trkpt lat="43.49423" lon="6.93442">
        <ele>165</ele>
        <time>2015-01-20T13:37:36Z</time>
      </trkpt>
      <trkpt lat="43.49433" lon="6.93434">
        <ele>161.34</ele>
        <time>2015-01-20T13:37:40Z</time>
      </trkpt>
      <trkpt lat="43.4944" lon="6.93439">
        <ele>158.55</ele>
        <time>2015-01-20T13:37:45Z</time>
      </trkpt>
      <trkpt lat="43.4944" lon="6.93443">
        <ele>158.31</ele>
        <time>2015-01-20T13:37:46Z</time>
      </trkpt>
      <trkpt lat="43.49438" lon="6.93455">
        <ele>156.67</ele>
        <time>2015-01-20T13:37:49Z</time>
      </trkpt>
      <trkpt lat="43.49437" lon="6.9347">
        <ele>153.33</ele>
        <time>2015-01-20T13:37:55Z</time>
      </trkpt>
      <trkpt lat="43.49439" lon="6.93479">
        <ele>149.34</ele>
        <time>2015-01-20T13:37:58Z</time>
      </trkpt>
      <trkpt lat="43.49435" lon="6.93497">
        <ele>146.03</ele>
        <time>2015-01-20T13:38:03Z</time>
      </trkpt>
      <trkpt lat="43.49433" lon="6.93512">
        <ele>145.26</ele>
        <time>2015-01-20T13:38:08Z</time>
      </trkpt>
      <trkpt lat="43.49438" lon="6.9353">
        <ele>141.24</ele>
        <time>2015-01-20T13:38:14Z</time>
      </trkpt>
      <trkpt lat="43.49439" lon="6.93542">
        <ele>139.78</ele>
        <time>2015-01-20T13:38:17Z</time>
      </trkpt>
      <trkpt lat="43.49446" lon="6.93555">
        <ele>137.12</ele>
        <time>2015-01-20T13:38:22Z</time>
      </trkpt>
      <trkpt lat="43.49448" lon="6.93558">
        <ele>136.86</ele>
        <time>2015-01-20T13:38:23Z</time>
      </trkpt>
      <trkpt lat="43.49455" lon="6.93574">
        <ele>132.57</ele>
        <time>2015-01-20T13:38:28Z</time>
      </trkpt>
      <trkpt lat="43.49457" lon="6.9358">
        <ele>131.25</ele>
        <time>2015-01-20T13:38:30Z</time>
      </trkpt>
      <trkpt lat="43.49463" lon="6.93583">
        <ele>129.36</ele>
        <time>2015-01-20T13:38:33Z</time>
      </trkpt>
      <trkpt lat="43.49468" lon="6.93591">
        <ele>126.93</ele>
        <time>2015-01-20T13:38:38Z</time>
      </trkpt>
      <trkpt lat="43.49475" lon="6.9359">
        <ele>123.65</ele>
        <time>2015-01-20T13:38:43Z</time>
      </trkpt>
      <trkpt lat="43.4948" lon="6.93604">
        <ele>120.6</ele>
        <time>2015-01-20T13:38:47Z</time>
      </trkpt>
      <trkpt lat="43.49487" lon="6.93608">
        <ele>118.09</ele>
        <time>2015-01-20T13:38:50Z</time>
      </trkpt>
      <trkpt lat="43.49496" lon="6.93607">
        <ele>115.01</ele>
        <time>2015-01-20T13:38:53Z</time>
      </trkpt>
      <trkpt lat="43.49498" lon="6.93605">
        <ele>114.03</ele>
        <time>2015-01-20T13:38:54Z</time>
      </trkpt>
      <trkpt lat="43.49502" lon="6.93602">
        <ele>112.45</ele>
        <time>2015-01-20T13:38:56Z</time>
      </trkpt>
      <trkpt lat="43.49507" lon="6.93613">
        <ele>109.28</ele>
        <time>2015-01-20T13:39:00Z</time>
      </trkpt>
      <trkpt lat="43.49513" lon="6.93628">
        <ele>104.83</ele>
        <time>2015-01-20T13:39:06Z</time>
      </trkpt>
      <trkpt lat="43.49514" lon="6.93628">
        <ele>103.22</ele>
        <time>2015-01-20T13:39:09Z</time>
      </trkpt>
      <trkpt lat="43.49515" lon="6.9363">
        <ele>102.59</ele>
        <time>2015-01-20T13:39:15Z</time>
      </trkpt>
      <trkpt lat="43.49523" lon="6.9363">
        <ele>101.85</ele>
        <time>2015-01-20T13:39:27Z</time>
      </trkpt>
      <trkpt lat="43.49531" lon="6.9363">
        <ele>98.45</ele>
        <time>2015-01-20T13:39:31Z</time>
      </trkpt>
      <trkpt lat="43.49532" lon="6.93638">
        <ele>97.7</ele>
        <time>2015-01-20T13:39:33Z</time>
      </trkpt>
      <trkpt lat="43.49533" lon="6.93649">
        <ele>95.06</ele>
        <time>2015-01-20T13:39:36Z</time>
      </trkpt>
      <trkpt lat="43.49535" lon="6.93651">
        <ele>94.1</ele>
        <time>2015-01-20T13:39:38Z</time>
      </trkpt>
      <trkpt lat="43.49543" lon="6.93647">
        <ele>91</ele>
        <time>2015-01-20T13:39:41Z</time>
      </trkpt>
      <trkpt lat="43.49545" lon="6.93641">
        <ele>90.09</ele>
        <time>2015-01-20T13:39:43Z</time>
      </trkpt>
      <trkpt lat="43.49546" lon="6.93639">
        <ele>90.26</ele>
        <time>2015-01-20T13:39:50Z</time>
      </trkpt>
      <trkpt lat="43.4955" lon="6.93628">
        <ele>89.14</ele>
        <time>2015-01-20T13:41:19Z</time>
      </trkpt>
      <trkpt lat="43.49556" lon="6.93604">
        <ele>85.58</ele>
        <time>2015-01-20T13:41:25Z</time>
      </trkpt>
      <trkpt lat="43.49564" lon="6.93603">
        <ele>82.58</ele>
        <time>2015-01-20T13:41:28Z</time>
      </trkpt>
      <trkpt lat="43.49571" lon="6.93613">
        <ele>79.25</ele>
        <time>2015-01-20T13:41:31Z</time>
      </trkpt>
      <trkpt lat="43.4958" lon="6.93628">
        <ele>74.99</ele>
        <time>2015-01-20T13:41:35Z</time>
      </trkpt>
      <trkpt lat="43.49587" lon="6.93644">
        <ele>72.04</ele>
        <time>2015-01-20T13:41:39Z</time>
      </trkpt>
      <trkpt lat="43.49589" lon="6.93654">
        <ele>68.96</ele>
        <time>2015-01-20T13:41:43Z</time>
      </trkpt>
      <trkpt lat="43.49597" lon="6.93649">
        <ele>65.95</ele>
        <time>2015-01-20T13:41:48Z</time>
      </trkpt>
      <trkpt lat="43.49603" lon="6.9366">
        <ele>61.26</ele>
        <time>2015-01-20T13:41:54Z</time>
      </trkpt>
      <trkpt lat="43.49601" lon="6.93663">
        <ele>60.81</ele>
        <time>2015-01-20T13:41:55Z</time>
      </trkpt>
      <trkpt lat="43.49596" lon="6.93669">
        <ele>60.04</ele>
        <time>2015-01-20T13:41:57Z</time>
      </trkpt>
      <trkpt lat="43.49594" lon="6.9367">
        <ele>60.71</ele>
        <time>2015-01-20T13:42:08Z</time>
      </trkpt>
      <trkpt lat="43.49592" lon="6.93666">
        <ele>60.68</ele>
        <time>2015-01-20T13:42:18Z</time>
      </trkpt>
      <trkpt lat="43.49589" lon="6.93671">
        <ele>60.42</ele>
        <time>2015-01-20T13:42:34Z</time>
      </trkpt>
      <trkpt lat="43.49593" lon="6.93677">
        <ele>57.23</ele>
        <time>2015-01-20T13:42:39Z</time>
      </trkpt>
      <trkpt lat="43.49595" lon="6.93676">
        <ele>56.31</ele>
        <time>2015-01-20T13:42:40Z</time>
      </trkpt>
      <trkpt lat="43.49605" lon="6.93668">
        <ele>53.11</ele>
        <time>2015-01-20T13:42:44Z</time>
      </trkpt>
      <trkpt lat="43.49608" lon="6.93661">
        <ele>53.6</ele>
        <time>2015-01-20T13:42:56Z</time>
      </trkpt>
      <trkpt lat="43.49613" lon="6.93655">
        <ele>54.33</ele>
        <time>2015-01-20T13:44:08Z</time>
      </trkpt>
      <trkpt lat="43.49628" lon="6.93622">
        <ele>56.76</ele>
        <time>2015-01-20T13:44:23Z</time>
      </trkpt>
      <trkpt lat="43.49633" lon="6.93595">
        <ele>59.4</ele>
        <time>2015-01-20T13:44:35Z</time>
      </trkpt>
      <trkpt lat="43.49644" lon="6.9356">
        <ele>61.57</ele>
        <time>2015-01-20T13:44:52Z</time>
      </trkpt>
      <trkpt lat="43.49657" lon="6.93528">
        <ele>63.32</ele>
        <time>2015-01-20T13:45:07Z</time>
      </trkpt>
      <trkpt lat="43.49669" lon="6.93493">
        <ele>66.24</ele>
        <time>2015-01-20T13:45:23Z</time>
      </trkpt>
      <trkpt lat="43.49666" lon="6.93465">
        <ele>69.32</ele>
        <time>2015-01-20T13:45:37Z</time>
      </trkpt>
      <trkpt lat="43.49657" lon="6.93434">
        <ele>72.02</ele>
        <time>2015-01-20T13:45:53Z</time>
      </trkpt>
      <trkpt lat="43.49643" lon="6.93405">
        <ele>74.33</ele>
        <time>2015-01-20T13:46:09Z</time>
      </trkpt>
      <trkpt lat="43.49632" lon="6.93392">
        <ele>75.82</ele>
        <time>2015-01-20T13:46:18Z</time>
      </trkpt>
      <trkpt lat="43.49611" lon="6.93376">
        <ele>78.12</ele>
        <time>2015-01-20T13:46:34Z</time>
      </trkpt>
      <trkpt lat="43.49609" lon="6.93375">
        <ele>78.49</ele>
        <time>2015-01-20T13:46:36Z</time>
      </trkpt>
      <trkpt lat="43.4959" lon="6.93364">
        <ele>80.81</ele>
        <time>2015-01-20T13:46:50Z</time>
      </trkpt>
      <trkpt lat="43.49575" lon="6.93354">
        <ele>81.86</ele>
        <time>2015-01-20T13:47:00Z</time>
      </trkpt>
      <trkpt lat="43.49575" lon="6.93344">
        <ele>81.57</ele>
        <time>2015-01-20T13:47:04Z</time>
      </trkpt>
      <trkpt lat="43.49595" lon="6.93322">
        <ele>83.33</ele>
        <time>2015-01-20T13:47:18Z</time>
      </trkpt>
      <trkpt lat="43.49618" lon="6.93307">
        <ele>84.09</ele>
        <time>2015-01-20T13:47:31Z</time>
      </trkpt>
      <trkpt lat="43.49626" lon="6.9327">
        <ele>85.9</ele>
        <time>2015-01-20T13:47:45Z</time>
      </trkpt>
      <trkpt lat="43.49615" lon="6.93238">
        <ele>88.14</ele>
        <time>2015-01-20T13:48:00Z</time>
      </trkpt>
      <trkpt lat="43.49593" lon="6.93218">
        <ele>88.79</ele>
        <time>2015-01-20T13:48:12Z</time>
      </trkpt>
      <trkpt lat="43.49581" lon="6.93201">
        <ele>87.65</ele>
        <time>2015-01-20T13:48:18Z</time>
      </trkpt>
      <trkpt lat="43.49585" lon="6.93185">
        <ele>87.74</ele>
        <time>2015-01-20T13:48:22Z</time>
      </trkpt>
      <trkpt lat="43.49619" lon="6.93147">
        <ele>90.82</ele>
        <time>2015-01-20T13:48:39Z</time>
      </trkpt>
      <trkpt lat="43.49632" lon="6.93114">
        <ele>93.79</ele>
        <time>2015-01-20T13:48:54Z</time>
      </trkpt>
      <trkpt lat="43.4964" lon="6.93076">
        <ele>95.84</ele>
        <time>2015-01-20T13:49:10Z</time>
      </trkpt>
      <trkpt lat="43.4963" lon="6.93045">
        <ele>98.2</ele>
        <time>2015-01-20T13:49:24Z</time>
      </trkpt>
      <trkpt lat="43.49598" lon="6.93023">
        <ele>100.42</ele>
        <time>2015-01-20T13:49:41Z</time>
      </trkpt>
      <trkpt lat="43.49598" lon="6.92991">
        <ele>101.13</ele>
        <time>2015-01-20T13:49:51Z</time>
      </trkpt>
      <trkpt lat="43.4959" lon="6.92961">
        <ele>103.02</ele>
        <time>2015-01-20T13:50:02Z</time>
      </trkpt>
      <trkpt lat="43.49574" lon="6.92923">
        <ele>105.31</ele>
        <time>2015-01-20T13:50:17Z</time>
      </trkpt>
      <trkpt lat="43.49562" lon="6.92899">
        <ele>107.92</ele>
        <time>2015-01-20T13:50:31Z</time>
      </trkpt>
      <trkpt lat="43.49553" lon="6.9289">
        <ele>108.95</ele>
        <time>2015-01-20T13:50:38Z</time>
      </trkpt>
      <trkpt lat="43.49534" lon="6.92859">
        <ele>112.02</ele>
        <time>2015-01-20T13:50:56Z</time>
      </trkpt>
      <trkpt lat="43.4951" lon="6.92833">
        <ele>113.72</ele>
        <time>2015-01-20T13:51:13Z</time>
      </trkpt>
      <trkpt lat="43.49503" lon="6.92798">
        <ele>115.88</ele>
        <time>2015-01-20T13:51:28Z</time>
      </trkpt>
      <trkpt lat="43.49491" lon="6.92763">
        <ele>116.48</ele>
        <time>2015-01-20T13:51:44Z</time>
      </trkpt>
      <trkpt lat="43.4948" lon="6.92736">
        <ele>118.42</ele>
        <time>2015-01-20T13:51:57Z</time>
      </trkpt>
      <trkpt lat="43.49474" lon="6.92698">
        <ele>119.94</ele>
        <time>2015-01-20T13:52:13Z</time>
      </trkpt>
      <trkpt lat="43.49481" lon="6.92655">
        <ele>122.34</ele>
        <time>2015-01-20T13:52:30Z</time>
      </trkpt>
      <trkpt lat="43.49473" lon="6.92606">
        <ele>125.39</ele>
        <time>2015-01-20T13:52:48Z</time>
      </trkpt>
      <trkpt lat="43.49458" lon="6.92568">
        <ele>127.58</ele>
        <time>2015-01-20T13:53:04Z</time>
      </trkpt>
      <trkpt lat="43.49444" lon="6.92534">
        <ele>129.86</ele>
        <time>2015-01-20T13:53:18Z</time>
      </trkpt>
      <trkpt lat="43.49437" lon="6.92494">
        <ele>132.34</ele>
        <time>2015-01-20T13:53:33Z</time>
      </trkpt>
      <trkpt lat="43.4943" lon="6.92448">
        <ele>134.97</ele>
        <time>2015-01-20T13:53:50Z</time>
      </trkpt>
      <trkpt lat="43.49429" lon="6.92441">
        <ele>135.3</ele>
        <time>2015-01-20T13:53:53Z</time>
      </trkpt>
      <trkpt lat="43.49436" lon="6.92449">
        <ele>135.99</ele>
        <time>2015-01-20T13:54:01Z</time>
      </trkpt>
      <trkpt lat="43.49444" lon="6.92498">
        <ele>137.32</ele>
        <time>2015-01-20T13:54:18Z</time>
      </trkpt>
      <trkpt lat="43.49456" lon="6.92534">
        <ele>137.99</ele>
        <time>2015-01-20T13:54:29Z</time>
      </trkpt>
      <trkpt lat="43.4948" lon="6.9256">
        <ele>139.66</ele>
        <time>2015-01-20T13:54:40Z</time>
      </trkpt>
      <trkpt lat="43.49514" lon="6.92579">
        <ele>143.01</ele>
        <time>2015-01-20T13:54:54Z</time>
      </trkpt>
      <trkpt lat="43.49532" lon="6.92555">
        <ele>145.19</ele>
        <time>2015-01-20T13:55:06Z</time>
      </trkpt>
      <trkpt lat="43.49535" lon="6.92513">
        <ele>147.01</ele>
        <time>2015-01-20T13:55:19Z</time>
      </trkpt>
      <trkpt lat="43.4953" lon="6.92466">
        <ele>150.01</ele>
        <time>2015-01-20T13:55:35Z</time>
      </trkpt>
      <trkpt lat="43.49522" lon="6.92424">
        <ele>152.79</ele>
        <time>2015-01-20T13:55:50Z</time>
      </trkpt>
      <trkpt lat="43.49532" lon="6.92387">
        <ele>154.38</ele>
        <time>2015-01-20T13:56:04Z</time>
      </trkpt>
      <trkpt lat="43.49552" lon="6.92346">
        <ele>155.62</ele>
        <time>2015-01-20T13:56:18Z</time>
      </trkpt>
      <trkpt lat="43.49552" lon="6.92336">
        <ele>156.9</ele>
        <time>2015-01-20T13:56:21Z</time>
      </trkpt>
      <trkpt lat="43.49553" lon="6.92276">
        <ele>160.29</ele>
        <time>2015-01-20T13:56:38Z</time>
      </trkpt>
      <trkpt lat="43.49552" lon="6.92222">
        <ele>163.18</ele>
        <time>2015-01-20T13:56:54Z</time>
      </trkpt>
      <trkpt lat="43.4954" lon="6.92188">
        <ele>165.44</ele>
        <time>2015-01-20T13:57:07Z</time>
      </trkpt>
      <trkpt lat="43.49526" lon="6.92164">
        <ele>167.59</ele>
        <time>2015-01-20T13:57:19Z</time>
      </trkpt>
      <trkpt lat="43.49525" lon="6.92163">
        <ele>167.79</ele>
        <time>2015-01-20T13:57:20Z</time>
      </trkpt>
      <trkpt lat="43.49502" lon="6.92186">
        <ele>170.57</ele>
        <time>2015-01-20T13:57:34Z</time>
      </trkpt>
      <trkpt lat="43.49498" lon="6.92189">
        <ele>170.84</ele>
        <time>2015-01-20T13:57:36Z</time>
      </trkpt>
      <trkpt lat="43.49492" lon="6.92175">
        <ele>171.43</ele>
        <time>2015-01-20T13:57:42Z</time>
      </trkpt>
      <trkpt lat="43.49485" lon="6.92133">
        <ele>174.91</ele>
        <time>2015-01-20T13:57:58Z</time>
      </trkpt>
      <trkpt lat="43.49478" lon="6.92116">
        <ele>175.88</ele>
        <time>2015-01-20T13:58:07Z</time>
      </trkpt>
      <trkpt lat="43.49473" lon="6.92112">
        <ele>176.52</ele>
        <time>2015-01-20T13:58:17Z</time>
      </trkpt>
      <trkpt lat="43.49471" lon="6.92111">
        <ele>176.25</ele>
        <time>2015-01-20T13:58:48Z</time>
      </trkpt>
      <trkpt lat="43.49471" lon="6.9211">
        <ele>176.14</ele>
        <time>2015-01-20T13:58:52Z</time>
      </trkpt>
      <trkpt lat="43.49468" lon="6.92108">
        <ele>176.35</ele>
        <time>2015-01-20T14:00:03Z</time>
      </trkpt>
      <trkpt lat="43.49442" lon="6.92098">
        <ele>177.61</ele>
        <time>2015-01-20T14:00:17Z</time>
      </trkpt>
      <trkpt lat="43.49425" lon="6.92066">
        <ele>180.54</ele>
        <time>2015-01-20T14:00:32Z</time>
      </trkpt>
      <trkpt lat="43.49423" lon="6.92063">
        <ele>180.64</ele>
        <time>2015-01-20T14:00:33Z</time>
      </trkpt>
      <trkpt lat="43.49429" lon="6.92023">
        <ele>181.58</ele>
        <time>2015-01-20T14:00:48Z</time>
      </trkpt>
      <trkpt lat="43.49448" lon="6.92004">
        <ele>183.68</ele>
        <time>2015-01-20T14:01:01Z</time>
      </trkpt>
      <trkpt lat="43.49475" lon="6.91982">
        <ele>186.33</ele>
        <time>2015-01-20T14:01:21Z</time>
      </trkpt>
      <trkpt lat="43.4949" lon="6.91951">
        <ele>188.48</ele>
        <time>2015-01-20T14:01:36Z</time>
      </trkpt>
      <trkpt lat="43.49512" lon="6.91949">
        <ele>190.03</ele>
        <time>2015-01-20T14:01:48Z</time>
      </trkpt>
      <trkpt lat="43.49536" lon="6.91947">
        <ele>191.87</ele>
        <time>2015-01-20T14:02:03Z</time>
      </trkpt>
      <trkpt lat="43.49547" lon="6.91918">
        <ele>193.88</ele>
        <time>2015-01-20T14:02:18Z</time>
      </trkpt>
      <trkpt lat="43.4956" lon="6.91887">
        <ele>196.31</ele>
        <time>2015-01-20T14:02:36Z</time>
      </trkpt>
      <trkpt lat="43.49569" lon="6.91867">
        <ele>197.78</ele>
        <time>2015-01-20T14:02:49Z</time>
      </trkpt>
      <trkpt lat="43.49589" lon="6.91874">
        <ele>199.03</ele>
        <time>2015-01-20T14:03:01Z</time>
      </trkpt>
      <trkpt lat="43.49611" lon="6.91896">
        <ele>201.13</ele>
        <time>2015-01-20T14:03:17Z</time>
      </trkpt>
      <trkpt lat="43.4963" lon="6.91913">
        <ele>203.27</ele>
        <time>2015-01-20T14:03:32Z</time>
      </trkpt>
      <trkpt lat="43.49643" lon="6.91937">
        <ele>204.81</ele>
        <time>2015-01-20T14:03:46Z</time>
      </trkpt>
      <trkpt lat="43.49663" lon="6.91966">
        <ele>207.01</ele>
        <time>2015-01-20T14:04:03Z</time>
      </trkpt>
      <trkpt lat="43.4968" lon="6.91992">
        <ele>209.33</ele>
        <time>2015-01-20T14:04:17Z</time>
      </trkpt>
      <trkpt lat="43.49696" lon="6.92018">
        <ele>210.96</ele>
        <time>2015-01-20T14:04:31Z</time>
      </trkpt>
      <trkpt lat="43.49715" lon="6.92047">
        <ele>212.95</ele>
        <time>2015-01-20T14:04:46Z</time>
      </trkpt>
      <trkpt lat="43.49719" lon="6.92083">
        <ele>214.97</ele>
        <time>2015-01-20T14:05:00Z</time>
      </trkpt>
      <trkpt lat="43.49721" lon="6.92122">
        <ele>217.56</ele>
        <time>2015-01-20T14:05:16Z</time>
      </trkpt>
      <trkpt lat="43.49731" lon="6.9216">
        <ele>219.07</ele>
        <time>2015-01-20T14:05:32Z</time>
      </trkpt>
      <trkpt lat="43.49748" lon="6.92194">
        <ele>221.78</ele>
        <time>2015-01-20T14:05:48Z</time>
      </trkpt>
      <trkpt lat="43.49776" lon="6.92218">
        <ele>224.51</ele>
        <time>2015-01-20T14:06:05Z</time>
      </trkpt>
      <trkpt lat="43.49808" lon="6.92223">
        <ele>226.71</ele>
        <time>2015-01-20T14:06:22Z</time>
      </trkpt>
      <trkpt lat="43.49832" lon="6.92224">
        <ele>228.49</ele>
        <time>2015-01-20T14:06:37Z</time>
      </trkpt>
      <trkpt lat="43.49838" lon="6.92229">
        <ele>229.35</ele>
        <time>2015-01-20T14:06:48Z</time>
      </trkpt>
      <trkpt lat="43.49829" lon="6.92226">
        <ele>228.64</ele>
        <time>2015-01-20T14:10:08Z</time>
      </trkpt>
      <trkpt lat="43.49829" lon="6.92225">
        <ele>228.67</ele>
        <time>2015-01-20T14:10:10Z</time>
      </trkpt>
      <trkpt lat="43.4984" lon="6.92235">
        <ele>229.07</ele>
        <time>2015-01-20T14:11:30Z</time>
      </trkpt>
      <trkpt lat="43.49848" lon="6.92249">
        <ele>230.14</ele>
        <time>2015-01-20T14:11:34Z</time>
      </trkpt>
      <trkpt lat="43.49854" lon="6.92269">
        <ele>229.47</ele>
        <time>2015-01-20T14:11:37Z</time>
      </trkpt>
      <trkpt lat="43.49865" lon="6.92311">
        <ele>226.42</ele>
        <time>2015-01-20T14:11:42Z</time>
      </trkpt>
      <trkpt lat="43.49871" lon="6.92361">
        <ele>228.24</ele>
        <time>2015-01-20T14:11:48Z</time>
      </trkpt>
      <trkpt lat="43.4988" lon="6.92398">
        <ele>227.47</ele>
        <time>2015-01-20T14:11:53Z</time>
      </trkpt>
      <trkpt lat="43.4989" lon="6.92423">
        <ele>228.58</ele>
        <time>2015-01-20T14:11:57Z</time>
      </trkpt>
      <trkpt lat="43.49896" lon="6.92467">
        <ele>225.08</ele>
        <time>2015-01-20T14:12:03Z</time>
      </trkpt>
      <trkpt lat="43.499" lon="6.925">
        <ele>222.66</ele>
        <time>2015-01-20T14:12:07Z</time>
      </trkpt>
      <trkpt lat="43.49904" lon="6.92517">
        <ele>222.26</ele>
        <time>2015-01-20T14:12:09Z</time>
      </trkpt>
      <trkpt lat="43.49911" lon="6.92556">
        <ele>219.02</ele>
        <time>2015-01-20T14:12:14Z</time>
      </trkpt>
      <trkpt lat="43.49916" lon="6.92579">
        <ele>217.19</ele>
        <time>2015-01-20T14:12:17Z</time>
      </trkpt>
      <trkpt lat="43.49922" lon="6.92601">
        <ele>216.54</ele>
        <time>2015-01-20T14:12:20Z</time>
      </trkpt>
      <trkpt lat="43.49927" lon="6.92622">
        <ele>215.1</ele>
        <time>2015-01-20T14:12:23Z</time>
      </trkpt>
      <trkpt lat="43.49931" lon="6.92634">
        <ele>214.7</ele>
        <time>2015-01-20T14:12:26Z</time>
      </trkpt>
      <trkpt lat="43.49936" lon="6.92646">
        <ele>215.86</ele>
        <time>2015-01-20T14:12:34Z</time>
      </trkpt>
      <trkpt lat="43.49939" lon="6.92661">
        <ele>214.04</ele>
        <time>2015-01-20T14:12:39Z</time>
      </trkpt>
      <trkpt lat="43.49948" lon="6.92682">
        <ele>212.16</ele>
        <time>2015-01-20T14:12:44Z</time>
      </trkpt>
      <trkpt lat="43.4996" lon="6.92702">
        <ele>210.61</ele>
        <time>2015-01-20T14:12:49Z</time>
      </trkpt>
      <trkpt lat="43.49982" lon="6.92724">
        <ele>211.89</ele>
        <time>2015-01-20T14:13:00Z</time>
      </trkpt>
      <trkpt lat="43.49994" lon="6.92743">
        <ele>211.55</ele>
        <time>2015-01-20T14:13:05Z</time>
      </trkpt>
      <trkpt lat="43.50002" lon="6.92773">
        <ele>207.42</ele>
        <time>2015-01-20T14:13:10Z</time>
      </trkpt>
      <trkpt lat="43.50004" lon="6.9278">
        <ele>207.05</ele>
        <time>2015-01-20T14:13:11Z</time>
      </trkpt>
      <trkpt lat="43.50007" lon="6.92793">
        <ele>205.76</ele>
        <time>2015-01-20T14:13:13Z</time>
      </trkpt>
      <trkpt lat="43.50014" lon="6.92818">
        <ele>202.42</ele>
        <time>2015-01-20T14:13:17Z</time>
      </trkpt>
      <trkpt lat="43.50015" lon="6.92826">
        <ele>201.77</ele>
        <time>2015-01-20T14:13:19Z</time>
      </trkpt>
      <trkpt lat="43.50016" lon="6.92831">
        <ele>201.36</ele>
        <time>2015-01-20T14:13:20Z</time>
      </trkpt>
      <trkpt lat="43.5002" lon="6.92859">
        <ele>196.88</ele>
        <time>2015-01-20T14:13:25Z</time>
      </trkpt>
      <trkpt lat="43.50019" lon="6.92865">
        <ele>196.17</ele>
        <time>2015-01-20T14:13:26Z</time>
      </trkpt>
      <trkpt lat="43.50018" lon="6.92902">
        <ele>192.18</ele>
        <time>2015-01-20T14:13:34Z</time>
      </trkpt>
      <trkpt lat="43.50018" lon="6.92908">
        <ele>191.26</ele>
        <time>2015-01-20T14:13:35Z</time>
      </trkpt>
      <trkpt lat="43.50017" lon="6.92947">
        <ele>186.89</ele>
        <time>2015-01-20T14:13:41Z</time>
      </trkpt>
      <trkpt lat="43.50018" lon="6.92968">
        <ele>185.03</ele>
        <time>2015-01-20T14:13:44Z</time>
      </trkpt>
      <trkpt lat="43.50018" lon="6.92992">
        <ele>185.7</ele>
        <time>2015-01-20T14:13:48Z</time>
      </trkpt>
      <trkpt lat="43.50024" lon="6.93042">
        <ele>187.13</ele>
        <time>2015-01-20T14:13:56Z</time>
      </trkpt>
      <trkpt lat="43.50027" lon="6.93054">
        <ele>187.05</ele>
        <time>2015-01-20T14:13:58Z</time>
      </trkpt>
      <trkpt lat="43.5004" lon="6.93102">
        <ele>186.76</ele>
        <time>2015-01-20T14:14:06Z</time>
      </trkpt>
      <trkpt lat="43.50052" lon="6.93133">
        <ele>187.08</ele>
        <time>2015-01-20T14:14:13Z</time>
      </trkpt>
      <trkpt lat="43.50078" lon="6.93169">
        <ele>185.65</ele>
        <time>2015-01-20T14:14:22Z</time>
      </trkpt>
      <trkpt lat="43.50084" lon="6.93165">
        <ele>186.5</ele>
        <time>2015-01-20T14:14:25Z</time>
      </trkpt>
      <trkpt lat="43.501" lon="6.9316">
        <ele>189.73</ele>
        <time>2015-01-20T14:14:38Z</time>
      </trkpt>
      <trkpt lat="43.50107" lon="6.93162">
        <ele>191.44</ele>
        <time>2015-01-20T14:14:44Z</time>
      </trkpt>
      <trkpt lat="43.50116" lon="6.93166">
        <ele>191.54</ele>
        <time>2015-01-20T14:14:48Z</time>
      </trkpt>
      <trkpt lat="43.50126" lon="6.93168">
        <ele>192.83</ele>
        <time>2015-01-20T14:14:53Z</time>
      </trkpt>
      <trkpt lat="43.50131" lon="6.93169">
        <ele>193.7</ele>
        <time>2015-01-20T14:15:01Z</time>
      </trkpt>
      <trkpt lat="43.50138" lon="6.93171">
        <ele>192.8</ele>
        <time>2015-01-20T14:15:46Z</time>
      </trkpt>
      <trkpt lat="43.50145" lon="6.93187">
        <ele>189.2</ele>
        <time>2015-01-20T14:15:50Z</time>
      </trkpt>
      <trkpt lat="43.50156" lon="6.93195">
        <ele>185.92</ele>
        <time>2015-01-20T14:15:54Z</time>
      </trkpt>
      <trkpt lat="43.50158" lon="6.93203">
        <ele>183.75</ele>
        <time>2015-01-20T14:15:56Z</time>
      </trkpt>
      <trkpt lat="43.50162" lon="6.93221">
        <ele>180.92</ele>
        <time>2015-01-20T14:16:00Z</time>
      </trkpt>
      <trkpt lat="43.50166" lon="6.93232">
        <ele>179.2</ele>
        <time>2015-01-20T14:16:02Z</time>
      </trkpt>
      <trkpt lat="43.50172" lon="6.93245">
        <ele>176.98</ele>
        <time>2015-01-20T14:16:04Z</time>
      </trkpt>
      <trkpt lat="43.50184" lon="6.93261">
        <ele>173.87</ele>
        <time>2015-01-20T14:16:08Z</time>
      </trkpt>
      <trkpt lat="43.50191" lon="6.93274">
        <ele>171.26</ele>
        <time>2015-01-20T14:16:13Z</time>
      </trkpt>
      <trkpt lat="43.50199" lon="6.93286">
        <ele>167.66</ele>
        <time>2015-01-20T14:16:17Z</time>
      </trkpt>
      <trkpt lat="43.50211" lon="6.93296">
        <ele>164.57</ele>
        <time>2015-01-20T14:16:23Z</time>
      </trkpt>
      <trkpt lat="43.50218" lon="6.93302">
        <ele>160.83</ele>
        <time>2015-01-20T14:16:27Z</time>
      </trkpt>
      <trkpt lat="43.50226" lon="6.93312">
        <ele>157.39</ele>
        <time>2015-01-20T14:16:33Z</time>
      </trkpt>
      <trkpt lat="43.50231" lon="6.93321">
        <ele>153.98</ele>
        <time>2015-01-20T14:16:38Z</time>
      </trkpt>
      <trkpt lat="43.50229" lon="6.93333">
        <ele>152.47</ele>
        <time>2015-01-20T14:16:41Z</time>
      </trkpt>
      <trkpt lat="43.50228" lon="6.93337">
        <ele>152.41</ele>
        <time>2015-01-20T14:16:43Z</time>
      </trkpt>
      <trkpt lat="43.50243" lon="6.93341">
        <ele>147.7</ele>
        <time>2015-01-20T14:16:48Z</time>
      </trkpt>
      <trkpt lat="43.50257" lon="6.93339">
        <ele>144.09</ele>
        <time>2015-01-20T14:16:53Z</time>
      </trkpt>
      <trkpt lat="43.50256" lon="6.93353">
        <ele>140.93</ele>
        <time>2015-01-20T14:16:56Z</time>
      </trkpt>
      <trkpt lat="43.50254" lon="6.93359">
        <ele>139.89</ele>
        <time>2015-01-20T14:16:58Z</time>
      </trkpt>
      <trkpt lat="43.50256" lon="6.93361">
        <ele>139.79</ele>
        <time>2015-01-20T14:17:00Z</time>
      </trkpt>
      <trkpt lat="43.50266" lon="6.93354">
        <ele>137.34</ele>
        <time>2015-01-20T14:17:04Z</time>
      </trkpt>
      <trkpt lat="43.50269" lon="6.93353">
        <ele>137.25</ele>
        <time>2015-01-20T14:17:05Z</time>
      </trkpt>
      <trkpt lat="43.50276" lon="6.93348">
        <ele>135.3</ele>
        <time>2015-01-20T14:17:08Z</time>
      </trkpt>
      <trkpt lat="43.5028" lon="6.93351">
        <ele>132.71</ele>
        <time>2015-01-20T14:17:12Z</time>
      </trkpt>
      <trkpt lat="43.50284" lon="6.93344">
        <ele>131.2</ele>
        <time>2015-01-20T14:17:16Z</time>
      </trkpt>
      <trkpt lat="43.5029" lon="6.93345">
        <ele>129.78</ele>
        <time>2015-01-20T14:17:20Z</time>
      </trkpt>
      <trkpt lat="43.50299" lon="6.93357">
        <ele>125.49</ele>
        <time>2015-01-20T14:17:25Z</time>
      </trkpt>
      <trkpt lat="43.50307" lon="6.93372">
        <ele>122.15</ele>
        <time>2015-01-20T14:17:29Z</time>
      </trkpt>
      <trkpt lat="43.50311" lon="6.9338">
        <ele>119.09</ele>
        <time>2015-01-20T14:17:31Z</time>
      </trkpt>
      <trkpt lat="43.50312" lon="6.93383">
        <ele>118.27</ele>
        <time>2015-01-20T14:17:32Z</time>
      </trkpt>
      <trkpt lat="43.50322" lon="6.93394">
        <ele>114.26</ele>
        <time>2015-01-20T14:17:36Z</time>
      </trkpt>
      <trkpt lat="43.50339" lon="6.93417">
        <ele>109.53</ele>
        <time>2015-01-20T14:17:42Z</time>
      </trkpt>
      <trkpt lat="43.50349" lon="6.93434">
        <ele>105.11</ele>
        <time>2015-01-20T14:17:46Z</time>
      </trkpt>
      <trkpt lat="43.50363" lon="6.93447">
        <ele>101.84</ele>
        <time>2015-01-20T14:17:50Z</time>
      </trkpt>
      <trkpt lat="43.50378" lon="6.93467">
        <ele>98.93</ele>
        <time>2015-01-20T14:17:54Z</time>
      </trkpt>
      <trkpt lat="43.50388" lon="6.93484">
        <ele>98.5</ele>
        <time>2015-01-20T14:17:57Z</time>
      </trkpt>
      <trkpt lat="43.50401" lon="6.93495">
        <ele>95.14</ele>
        <time>2015-01-20T14:18:04Z</time>
      </trkpt>
      <trkpt lat="43.50401" lon="6.93494">
        <ele>95.31</ele>
        <time>2015-01-20T14:18:10Z</time>
      </trkpt>
      <trkpt lat="43.50393" lon="6.93494">
        <ele>95.91</ele>
        <time>2015-01-20T14:19:51Z</time>
      </trkpt>
      <trkpt lat="43.50379" lon="6.93474">
        <ele>97.77</ele>
        <time>2015-01-20T14:20:03Z</time>
      </trkpt>
      <trkpt lat="43.50376" lon="6.93469">
        <ele>99.03</ele>
        <time>2015-01-20T14:20:13Z</time>
      </trkpt>
      <trkpt lat="43.50355" lon="6.93455">
        <ele>101.21</ele>
        <time>2015-01-20T14:21:02Z</time>
      </trkpt>
      <trkpt lat="43.50332" lon="6.93438">
        <ele>104.08</ele>
        <time>2015-01-20T14:21:17Z</time>
      </trkpt>
      <trkpt lat="43.50312" lon="6.93423">
        <ele>107.18</ele>
        <time>2015-01-20T14:21:31Z</time>
      </trkpt>
      <trkpt lat="43.50296" lon="6.9341">
        <ele>110.27</ele>
        <time>2015-01-20T14:21:44Z</time>
      </trkpt>
      <trkpt lat="43.50284" lon="6.93407">
        <ele>113.38</ele>
        <time>2015-01-20T14:21:57Z</time>
      </trkpt>
      <trkpt lat="43.50275" lon="6.93413">
        <ele>115.88</ele>
        <time>2015-01-20T14:22:07Z</time>
      </trkpt>
      <trkpt lat="43.50259" lon="6.93413">
        <ele>118.11</ele>
        <time>2015-01-20T14:22:19Z</time>
      </trkpt>
      <trkpt lat="43.50254" lon="6.93413">
        <ele>118.75</ele>
        <time>2015-01-20T14:22:23Z</time>
      </trkpt>
      <trkpt lat="43.50238" lon="6.93406">
        <ele>121.93</ele>
        <time>2015-01-20T14:22:38Z</time>
      </trkpt>
      <trkpt lat="43.50219" lon="6.934">
        <ele>124.99</ele>
        <time>2015-01-20T14:22:52Z</time>
      </trkpt>
      <trkpt lat="43.50206" lon="6.93395">
        <ele>127.84</ele>
        <time>2015-01-20T14:23:06Z</time>
      </trkpt>
      <trkpt lat="43.50192" lon="6.93389">
        <ele>130.09</ele>
        <time>2015-01-20T14:23:19Z</time>
      </trkpt>
      <trkpt lat="43.50186" lon="6.93388">
        <ele>130.62</ele>
        <time>2015-01-20T14:23:23Z</time>
      </trkpt>
      <trkpt lat="43.50161" lon="6.93366">
        <ele>131.56</ele>
        <time>2015-01-20T14:23:39Z</time>
      </trkpt>
      <trkpt lat="43.5013" lon="6.93318">
        <ele>130.04</ele>
        <time>2015-01-20T14:23:54Z</time>
      </trkpt>
      <trkpt lat="43.50127" lon="6.93313">
        <ele>129.3</ele>
        <time>2015-01-20T14:23:55Z</time>
      </trkpt>
      <trkpt lat="43.50102" lon="6.93301">
        <ele>129.08</ele>
        <time>2015-01-20T14:24:03Z</time>
      </trkpt>
      <trkpt lat="43.50088" lon="6.93302">
        <ele>130.68</ele>
        <time>2015-01-20T14:24:08Z</time>
      </trkpt>
      <trkpt lat="43.50055" lon="6.93296">
        <ele>131.4</ele>
        <time>2015-01-20T14:24:19Z</time>
      </trkpt>
      <trkpt lat="43.50011" lon="6.93278">
        <ele>133.77</ele>
        <time>2015-01-20T14:24:31Z</time>
      </trkpt>
      <trkpt lat="43.50007" lon="6.93277">
        <ele>134.04</ele>
        <time>2015-01-20T14:24:32Z</time>
      </trkpt>
      <trkpt lat="43.49986" lon="6.93266">
        <ele>137.31</ele>
        <time>2015-01-20T14:24:42Z</time>
      </trkpt>
      <trkpt lat="43.49983" lon="6.9326">
        <ele>138.59</ele>
        <time>2015-01-20T14:24:45Z</time>
      </trkpt>
      <trkpt lat="43.49978" lon="6.93253">
        <ele>139.67</ele>
        <time>2015-01-20T14:24:49Z</time>
      </trkpt>
      <trkpt lat="43.49981" lon="6.93229">
        <ele>142.4</ele>
        <time>2015-01-20T14:25:00Z</time>
      </trkpt>
      <trkpt lat="43.4998" lon="6.93217">
        <ele>141.93</ele>
        <time>2015-01-20T14:25:11Z</time>
      </trkpt>
      <trkpt lat="43.49982" lon="6.93229">
        <ele>141.81</ele>
        <time>2015-01-20T14:25:28Z</time>
      </trkpt>
      <trkpt lat="43.49982" lon="6.93236">
        <ele>142.23</ele>
        <time>2015-01-20T14:25:34Z</time>
      </trkpt>
      <trkpt lat="43.49982" lon="6.93223">
        <ele>142.07</ele>
        <time>2015-01-20T14:26:28Z</time>
      </trkpt>
      <trkpt lat="43.49979" lon="6.93189">
        <ele>139.05</ele>
        <time>2015-01-20T14:26:34Z</time>
      </trkpt>
      <trkpt lat="43.49978" lon="6.93183">
        <ele>138.9</ele>
        <time>2015-01-20T14:26:35Z</time>
      </trkpt>
      <trkpt lat="43.49968" lon="6.93161">
        <ele>138.43</ele>
        <time>2015-01-20T14:26:41Z</time>
      </trkpt>
      <trkpt lat="43.49963" lon="6.93146">
        <ele>136.66</ele>
        <time>2015-01-20T14:26:45Z</time>
      </trkpt>
      <trkpt lat="43.49951" lon="6.93125">
        <ele>133.58</ele>
        <time>2015-01-20T14:26:50Z</time>
      </trkpt>
      <trkpt lat="43.49947" lon="6.93121">
        <ele>132.93</ele>
        <time>2015-01-20T14:26:51Z</time>
      </trkpt>
      <trkpt lat="43.49933" lon="6.93096">
        <ele>132.24</ele>
        <time>2015-01-20T14:26:55Z</time>
      </trkpt>
      <trkpt lat="43.49923" lon="6.93068">
        <ele>127.73</ele>
        <time>2015-01-20T14:26:59Z</time>
      </trkpt>
      <trkpt lat="43.4991" lon="6.93021">
        <ele>125.83</ele>
        <time>2015-01-20T14:27:05Z</time>
      </trkpt>
      <trkpt lat="43.49897" lon="6.92947">
        <ele>123.66</ele>
        <time>2015-01-20T14:27:14Z</time>
      </trkpt>
      <trkpt lat="43.49864" lon="6.929">
        <ele>126.35</ele>
        <time>2015-01-20T14:27:26Z</time>
      </trkpt>
      <trkpt lat="43.49845" lon="6.92861">
        <ele>127.31</ele>
        <time>2015-01-20T14:27:36Z</time>
      </trkpt>
      <trkpt lat="43.49842" lon="6.92843">
        <ele>125.49</ele>
        <time>2015-01-20T14:27:40Z</time>
      </trkpt>
      <trkpt lat="43.49826" lon="6.92807">
        <ele>125.3</ele>
        <time>2015-01-20T14:27:48Z</time>
      </trkpt>
      <trkpt lat="43.498" lon="6.92759">
        <ele>124.92</ele>
        <time>2015-01-20T14:28:00Z</time>
      </trkpt>
      <trkpt lat="43.49795" lon="6.92754">
        <ele>125.57</ele>
        <time>2015-01-20T14:28:02Z</time>
      </trkpt>
      <trkpt lat="43.49781" lon="6.92734">
        <ele>128.08</ele>
        <time>2015-01-20T14:28:11Z</time>
      </trkpt>
      <trkpt lat="43.49772" lon="6.92705">
        <ele>130.56</ele>
        <time>2015-01-20T14:28:25Z</time>
      </trkpt>
      <trkpt lat="43.49767" lon="6.92672">
        <ele>131.81</ele>
        <time>2015-01-20T14:28:39Z</time>
      </trkpt>
      <trkpt lat="43.49751" lon="6.92627">
        <ele>129.16</ele>
        <time>2015-01-20T14:28:51Z</time>
      </trkpt>
      <trkpt lat="43.49742" lon="6.92625">
        <ele>129.44</ele>
        <time>2015-01-20T14:28:56Z</time>
      </trkpt>
      <trkpt lat="43.49732" lon="6.92632">
        <ele>128.54</ele>
        <time>2015-01-20T14:28:59Z</time>
      </trkpt>
      <trkpt lat="43.497" lon="6.92606">
        <ele>126.79</ele>
        <time>2015-01-20T14:29:07Z</time>
      </trkpt>
      <trkpt lat="43.49689" lon="6.92599">
        <ele>126.67</ele>
        <time>2015-01-20T14:29:10Z</time>
      </trkpt>
      <trkpt lat="43.49681" lon="6.92594">
        <ele>127.31</ele>
        <time>2015-01-20T14:29:12Z</time>
      </trkpt>
      <trkpt lat="43.49667" lon="6.92576">
        <ele>127.08</ele>
        <time>2015-01-20T14:29:16Z</time>
      </trkpt>
      <trkpt lat="43.4964" lon="6.92528">
        <ele>124.07</ele>
        <time>2015-01-20T14:29:25Z</time>
      </trkpt>
      <trkpt lat="43.49636" lon="6.92518">
        <ele>123.45</ele>
        <time>2015-01-20T14:29:27Z</time>
      </trkpt>
      <trkpt lat="43.49627" lon="6.92492">
        <ele>120.66</ele>
        <time>2015-01-20T14:29:31Z</time>
      </trkpt>
      <trkpt lat="43.4962" lon="6.9245">
        <ele>117.87</ele>
        <time>2015-01-20T14:29:38Z</time>
      </trkpt>
      <trkpt lat="43.49621" lon="6.92447">
        <ele>117.91</ele>
        <time>2015-01-20T14:29:39Z</time>
      </trkpt>
      <trkpt lat="43.49615" lon="6.92434">
        <ele>117.26</ele>
        <time>2015-01-20T14:29:44Z</time>
      </trkpt>
      <trkpt lat="43.49604" lon="6.92439">
        <ele>118.66</ele>
        <time>2015-01-20T14:29:55Z</time>
      </trkpt>
      <trkpt lat="43.49597" lon="6.9244">
        <ele>119.84</ele>
        <time>2015-01-20T14:30:02Z</time>
      </trkpt>
      <trkpt lat="43.49589" lon="6.92445">
        <ele>120.38</ele>
        <time>2015-01-20T14:30:10Z</time>
      </trkpt>
      <trkpt lat="43.49588" lon="6.92446">
        <ele>120.35</ele>
        <time>2015-01-20T14:30:15Z</time>
      </trkpt>
      <trkpt lat="43.49583" lon="6.92451">
        <ele>120.36</ele>
        <time>2015-01-20T14:30:24Z</time>
      </trkpt>
      <trkpt lat="43.49583" lon="6.92452">
        <ele>120.38</ele>
        <time>2015-01-20T14:30:25Z</time>
      </trkpt>
      <trkpt lat="43.49578" lon="6.92492">
        <ele>120.53</ele>
        <time>2015-01-20T14:30:38Z</time>
      </trkpt>
      <trkpt lat="43.49569" lon="6.92534">
        <ele>122.85</ele>
        <time>2015-01-20T14:30:51Z</time>
      </trkpt>
      <trkpt lat="43.49564" lon="6.92562">
        <ele>125.99</ele>
        <time>2015-01-20T14:31:03Z</time>
      </trkpt>
      <trkpt lat="43.49551" lon="6.92598">
        <ele>126.97</ele>
        <time>2015-01-20T14:31:17Z</time>
      </trkpt>
      <trkpt lat="43.49521" lon="6.9263">
        <ele>125.81</ele>
        <time>2015-01-20T14:31:29Z</time>
      </trkpt>
      <trkpt lat="43.49508" lon="6.92655">
        <ele>125.84</ele>
        <time>2015-01-20T14:31:40Z</time>
      </trkpt>
      <trkpt lat="43.49508" lon="6.92653">
        <ele>126.04</ele>
        <time>2015-01-20T14:31:47Z</time>
      </trkpt>
      <trkpt lat="43.49506" lon="6.92669">
        <ele>124.77</ele>
        <time>2015-01-20T14:32:58Z</time>
      </trkpt>
      <trkpt lat="43.49506" lon="6.92675">
        <ele>124.63</ele>
        <time>2015-01-20T14:32:59Z</time>
      </trkpt>
      <trkpt lat="43.49499" lon="6.92709">
        <ele>120.47</ele>
        <time>2015-01-20T14:33:04Z</time>
      </trkpt>
      <trkpt lat="43.49493" lon="6.92737">
        <ele>115.78</ele>
        <time>2015-01-20T14:33:07Z</time>
      </trkpt>
      <trkpt lat="43.4948" lon="6.9281">
        <ele>115.98</ele>
        <time>2015-01-20T14:33:16Z</time>
      </trkpt>
      <trkpt lat="43.49475" lon="6.92819">
        <ele>117.31</ele>
        <time>2015-01-20T14:33:19Z</time>
      </trkpt>
      <trkpt lat="43.4945" lon="6.92846">
        <ele>120.52</ele>
        <time>2015-01-20T14:33:32Z</time>
      </trkpt>
      <trkpt lat="43.49446" lon="6.92846">
        <ele>121.31</ele>
        <time>2015-01-20T14:33:34Z</time>
      </trkpt>
      <trkpt lat="43.49419" lon="6.9285">
        <ele>124.59</ele>
        <time>2015-01-20T14:33:48Z</time>
      </trkpt>
      <trkpt lat="43.49407" lon="6.9287">
        <ele>127.68</ele>
        <time>2015-01-20T14:33:58Z</time>
      </trkpt>
      <trkpt lat="43.49407" lon="6.92911">
        <ele>130</ele>
        <time>2015-01-20T14:34:13Z</time>
      </trkpt>
      <trkpt lat="43.49409" lon="6.92919">
        <ele>131.38</ele>
        <time>2015-01-20T14:34:16Z</time>
      </trkpt>
      <trkpt lat="43.49409" lon="6.92961">
        <ele>133.4</ele>
        <time>2015-01-20T14:34:31Z</time>
      </trkpt>
      <trkpt lat="43.49409" lon="6.93003">
        <ele>136.49</ele>
        <time>2015-01-20T14:34:46Z</time>
      </trkpt>
      <trkpt lat="43.49405" lon="6.93043">
        <ele>139.62</ele>
        <time>2015-01-20T14:35:00Z</time>
      </trkpt>
      <trkpt lat="43.49389" lon="6.93081">
        <ele>143.01</ele>
        <time>2015-01-20T14:35:15Z</time>
      </trkpt>
      <trkpt lat="43.49372" lon="6.93108">
        <ele>145.5</ele>
        <time>2015-01-20T14:35:28Z</time>
      </trkpt>
      <trkpt lat="43.4936" lon="6.93144">
        <ele>147.95</ele>
        <time>2015-01-20T14:35:42Z</time>
      </trkpt>
      <trkpt lat="43.49363" lon="6.93174">
        <ele>150.22</ele>
        <time>2015-01-20T14:35:55Z</time>
      </trkpt>
      <trkpt lat="43.49371" lon="6.93198">
        <ele>153.17</ele>
        <time>2015-01-20T14:36:06Z</time>
      </trkpt>
      <trkpt lat="43.49373" lon="6.93191">
        <ele>154.33</ele>
        <time>2015-01-20T14:36:11Z</time>
      </trkpt>
      <trkpt lat="43.49374" lon="6.93157">
        <ele>156.56</ele>
        <time>2015-01-20T14:36:25Z</time>
      </trkpt>
      <trkpt lat="43.49392" lon="6.93133">
        <ele>158.39</ele>
        <time>2015-01-20T14:36:39Z</time>
      </trkpt>
      <trkpt lat="43.49419" lon="6.9312">
        <ele>161.41</ele>
        <time>2015-01-20T14:36:55Z</time>
      </trkpt>
      <trkpt lat="43.49443" lon="6.9312">
        <ele>163.22</ele>
        <time>2015-01-20T14:37:09Z</time>
      </trkpt>
      <trkpt lat="43.49443" lon="6.93155">
        <ele>161.04</ele>
        <time>2015-01-20T14:37:16Z</time>
      </trkpt>
      <trkpt lat="43.49433" lon="6.93185">
        <ele>160.41</ele>
        <time>2015-01-20T14:37:21Z</time>
      </trkpt>
      <trkpt lat="43.49412" lon="6.93215">
        <ele>159.22</ele>
        <time>2015-01-20T14:37:27Z</time>
      </trkpt>
      <trkpt lat="43.49401" lon="6.93252">
        <ele>162.91</ele>
        <time>2015-01-20T14:37:35Z</time>
      </trkpt>
      <trkpt lat="43.494" lon="6.93258">
        <ele>163.61</ele>
        <time>2015-01-20T14:37:37Z</time>
      </trkpt>
      <trkpt lat="43.49401" lon="6.93298">
        <ele>166.63</ele>
        <time>2015-01-20T14:37:50Z</time>
      </trkpt>
      <trkpt lat="43.494" lon="6.9332">
        <ele>169.71</ele>
        <time>2015-01-20T14:37:58Z</time>
      </trkpt>
      <trkpt lat="43.49399" lon="6.93324">
        <ele>169.89</ele>
        <time>2015-01-20T14:38:00Z</time>
      </trkpt>
      <trkpt lat="43.49387" lon="6.93315">
        <ele>172.2</ele>
        <time>2015-01-20T14:38:12Z</time>
      </trkpt>
      <trkpt lat="43.49387" lon="6.93311">
        <ele>172.32</ele>
        <time>2015-01-20T14:38:15Z</time>
      </trkpt>
      <trkpt lat="43.49385" lon="6.93306">
        <ele>172.89</ele>
        <time>2015-01-20T14:38:24Z</time>
      </trkpt>
      <trkpt lat="43.4938" lon="6.93305">
        <ele>174.19</ele>
        <time>2015-01-20T14:41:56Z</time>
      </trkpt>
      <trkpt lat="43.49356" lon="6.93309">
        <ele>176.19</ele>
        <time>2015-01-20T14:42:09Z</time>
      </trkpt>
      <trkpt lat="43.49341" lon="6.93334">
        <ele>178.56</ele>
        <time>2015-01-20T14:42:23Z</time>
      </trkpt>
      <trkpt lat="43.49355" lon="6.93362">
        <ele>181.81</ele>
        <time>2015-01-20T14:42:37Z</time>
      </trkpt>
      <trkpt lat="43.49348" lon="6.93394">
        <ele>184.18</ele>
        <time>2015-01-20T14:42:49Z</time>
      </trkpt>
      <trkpt lat="43.49342" lon="6.9342">
        <ele>182.78</ele>
        <time>2015-01-20T14:42:55Z</time>
      </trkpt>
      <trkpt lat="43.49333" lon="6.93406">
        <ele>182.78</ele>
        <time>2015-01-20T14:43:02Z</time>
      </trkpt>
      <trkpt lat="43.49337" lon="6.9339">
        <ele>183.72</ele>
        <time>2015-01-20T14:43:12Z</time>
      </trkpt>
      <trkpt lat="43.49336" lon="6.93379">
        <ele>182.75</ele>
        <time>2015-01-20T14:45:04Z</time>
      </trkpt>
      <trkpt lat="43.49333" lon="6.93365">
        <ele>180.59</ele>
        <time>2015-01-20T14:45:07Z</time>
      </trkpt>
      <trkpt lat="43.49333" lon="6.93343">
        <ele>180.34</ele>
        <time>2015-01-20T14:45:16Z</time>
      </trkpt>
      <trkpt lat="43.49333" lon="6.93343">
        <ele>180.37</ele>
        <time>2015-01-20T14:45:18Z</time>
      </trkpt>
      <trkpt lat="43.49339" lon="6.9334">
        <ele>180.66</ele>
        <time>2015-01-20T14:45:30Z</time>
      </trkpt>
      <trkpt lat="43.49342" lon="6.93344">
        <ele>180.77</ele>
        <time>2015-01-20T14:45:32Z</time>
      </trkpt>
      <trkpt lat="43.49356" lon="6.93363">
        <ele>183.25</ele>
        <time>2015-01-20T14:45:43Z</time>
      </trkpt>
      <trkpt lat="43.49352" lon="6.93376">
        <ele>184.36</ele>
        <time>2015-01-20T14:45:51Z</time>
      </trkpt>
      <trkpt lat="43.49351" lon="6.93387">
        <ele>185.02</ele>
        <time>2015-01-20T14:45:57Z</time>
      </trkpt>
      <trkpt lat="43.49344" lon="6.93433">
        <ele>183.1</ele>
        <time>2015-01-20T14:46:09Z</time>
      </trkpt>
      <trkpt lat="43.49336" lon="6.9348">
        <ele>182.62</ele>
        <time>2015-01-20T14:46:21Z</time>
      </trkpt>
      <trkpt lat="43.49335" lon="6.93492">
        <ele>181</ele>
        <time>2015-01-20T14:46:23Z</time>
      </trkpt>
      <trkpt lat="43.49335" lon="6.93503">
        <ele>180.14</ele>
        <time>2015-01-20T14:46:25Z</time>
      </trkpt>
      <trkpt lat="43.49344" lon="6.93545">
        <ele>175.78</ele>
        <time>2015-01-20T14:46:31Z</time>
      </trkpt>
      <trkpt lat="43.49346" lon="6.93554">
        <ele>175.03</ele>
        <time>2015-01-20T14:46:32Z</time>
      </trkpt>
      <trkpt lat="43.49342" lon="6.93597">
        <ele>171.18</ele>
        <time>2015-01-20T14:46:37Z</time>
      </trkpt>
      <trkpt lat="43.49331" lon="6.93631">
        <ele>173.1</ele>
        <time>2015-01-20T14:46:43Z</time>
      </trkpt>
      <trkpt lat="43.49324" lon="6.93661">
        <ele>176.26</ele>
        <time>2015-01-20T14:46:51Z</time>
      </trkpt>
      <trkpt lat="43.4932" lon="6.93691">
        <ele>179.27</ele>
        <time>2015-01-20T14:47:01Z</time>
      </trkpt>
      <trkpt lat="43.49312" lon="6.93733">
        <ele>182.56</ele>
        <time>2015-01-20T14:47:15Z</time>
      </trkpt>
      <trkpt lat="43.4931" lon="6.93793">
        <ele>182.42</ele>
        <time>2015-01-20T14:47:32Z</time>
      </trkpt>
      <trkpt lat="43.49305" lon="6.93872">
        <ele>182.65</ele>
        <time>2015-01-20T14:47:50Z</time>
      </trkpt>
      <trkpt lat="43.49321" lon="6.93948">
        <ele>179.44</ele>
        <time>2015-01-20T14:48:05Z</time>
      </trkpt>
      <trkpt lat="43.4933" lon="6.94001">
        <ele>175.72</ele>
        <time>2015-01-20T14:48:11Z</time>
      </trkpt>
      <trkpt lat="43.49334" lon="6.94032">
        <ele>172.35</ele>
        <time>2015-01-20T14:48:14Z</time>
      </trkpt>
      <trkpt lat="43.49337" lon="6.94065">
        <ele>169</ele>
        <time>2015-01-20T14:48:17Z</time>
      </trkpt>
      <trkpt lat="43.49337" lon="6.94076">
        <ele>168.03</ele>
        <time>2015-01-20T14:48:18Z</time>
      </trkpt>
      <trkpt lat="43.49343" lon="6.94141">
        <ele>164.71</ele>
        <time>2015-01-20T14:48:24Z</time>
      </trkpt>
      <trkpt lat="43.49347" lon="6.94199">
        <ele>161.38</ele>
        <time>2015-01-20T14:48:30Z</time>
      </trkpt>
      <trkpt lat="43.49347" lon="6.94216">
        <ele>160.31</ele>
        <time>2015-01-20T14:48:32Z</time>
      </trkpt>
      <trkpt lat="43.49348" lon="6.94224">
        <ele>159.81</ele>
        <time>2015-01-20T14:48:33Z</time>
      </trkpt>
      <trkpt lat="43.49349" lon="6.94238">
        <ele>158</ele>
        <time>2015-01-20T14:48:35Z</time>
      </trkpt>
      <trkpt lat="43.49354" lon="6.94256">
        <ele>157.99</ele>
        <time>2015-01-20T14:48:44Z</time>
      </trkpt>
      <trkpt lat="43.49355" lon="6.94256">
        <ele>157.98</ele>
        <time>2015-01-20T14:48:45Z</time>
      </trkpt>
      <trkpt lat="43.49361" lon="6.94252">
        <ele>157.74</ele>
        <time>2015-01-20T14:49:01Z</time>
      </trkpt>
      <trkpt lat="43.49364" lon="6.94251">
        <ele>157.57</ele>
        <time>2015-01-20T14:49:02Z</time>
      </trkpt>
      <trkpt lat="43.49409" lon="6.9425">
        <ele>153.42</ele>
        <time>2015-01-20T14:49:10Z</time>
      </trkpt>
      <trkpt lat="43.49441" lon="6.94251">
        <ele>155.93</ele>
        <time>2015-01-20T14:49:18Z</time>
      </trkpt>
      <trkpt lat="43.4948" lon="6.9425">
        <ele>158.06</ele>
        <time>2015-01-20T14:49:32Z</time>
      </trkpt>
      <trkpt lat="43.49517" lon="6.94247">
        <ele>157.94</ele>
        <time>2015-01-20T14:49:43Z</time>
      </trkpt>
      <trkpt lat="43.49535" lon="6.94241">
        <ele>155.9</ele>
        <time>2015-01-20T14:49:47Z</time>
      </trkpt>
      <trkpt lat="43.49549" lon="6.94253">
        <ele>155.28</ele>
        <time>2015-01-20T14:49:53Z</time>
      </trkpt>
      <trkpt lat="43.49557" lon="6.94264">
        <ele>155.13</ele>
        <time>2015-01-20T14:49:59Z</time>
      </trkpt>
      <trkpt lat="43.49576" lon="6.94249">
        <ele>156.26</ele>
        <time>2015-01-20T14:50:12Z</time>
      </trkpt>
      <trkpt lat="43.49594" lon="6.9424">
        <ele>158.75</ele>
        <time>2015-01-20T14:50:24Z</time>
      </trkpt>
      <trkpt lat="43.49615" lon="6.94229">
        <ele>161.6</ele>
        <time>2015-01-20T14:50:39Z</time>
      </trkpt>
      <trkpt lat="43.49638" lon="6.94218">
        <ele>163.94</ele>
        <time>2015-01-20T14:50:54Z</time>
      </trkpt>
      <trkpt lat="43.49663" lon="6.942">
        <ele>166.34</ele>
        <time>2015-01-20T14:51:10Z</time>
      </trkpt>
      <trkpt lat="43.49684" lon="6.94179">
        <ele>169.5</ele>
        <time>2015-01-20T14:51:25Z</time>
      </trkpt>
      <trkpt lat="43.49709" lon="6.94163">
        <ele>172.52</ele>
        <time>2015-01-20T14:51:40Z</time>
      </trkpt>
      <trkpt lat="43.49736" lon="6.94165">
        <ele>174.91</ele>
        <time>2015-01-20T14:51:56Z</time>
      </trkpt>
      <trkpt lat="43.49769" lon="6.94163">
        <ele>177.17</ele>
        <time>2015-01-20T14:52:13Z</time>
      </trkpt>
      <trkpt lat="43.49796" lon="6.94158">
        <ele>178.44</ele>
        <time>2015-01-20T14:52:28Z</time>
      </trkpt>
      <trkpt lat="43.49829" lon="6.94144">
        <ele>179.92</ele>
        <time>2015-01-20T14:52:44Z</time>
      </trkpt>
      <trkpt lat="43.49835" lon="6.9414">
        <ele>180.39</ele>
        <time>2015-01-20T14:52:47Z</time>
      </trkpt>
      <trkpt lat="43.49838" lon="6.9415">
        <ele>181.99</ele>
        <time>2015-01-20T14:52:54Z</time>
      </trkpt>
      <trkpt lat="43.49819" lon="6.9417">
        <ele>184.01</ele>
        <time>2015-01-20T14:53:09Z</time>
      </trkpt>
      <trkpt lat="43.49799" lon="6.94192">
        <ele>186.14</ele>
        <time>2015-01-20T14:53:24Z</time>
      </trkpt>
      <trkpt lat="43.4978" lon="6.94214">
        <ele>189.18</ele>
        <time>2015-01-20T14:53:39Z</time>
      </trkpt>
      <trkpt lat="43.49766" lon="6.94243">
        <ele>191.62</ele>
        <time>2015-01-20T14:53:53Z</time>
      </trkpt>
      <trkpt lat="43.49762" lon="6.94281">
        <ele>192.06</ele>
        <time>2015-01-20T14:54:05Z</time>
      </trkpt>
      <trkpt lat="43.49765" lon="6.94305">
        <ele>190.42</ele>
        <time>2015-01-20T14:54:16Z</time>
      </trkpt>
      <trkpt lat="43.49765" lon="6.94305">
        <ele>190.36</ele>
        <time>2015-01-20T14:54:17Z</time>
      </trkpt>
      <trkpt lat="43.49765" lon="6.94298">
        <ele>190.5</ele>
        <time>2015-01-20T14:54:24Z</time>
      </trkpt>
      <trkpt lat="43.4976" lon="6.94281">
        <ele>191.47</ele>
        <time>2015-01-20T14:54:40Z</time>
      </trkpt>
      <trkpt lat="43.49764" lon="6.94298">
        <ele>191.34</ele>
        <time>2015-01-20T14:54:45Z</time>
      </trkpt>
      <trkpt lat="43.49786" lon="6.94346">
        <ele>192</ele>
        <time>2015-01-20T14:54:58Z</time>
      </trkpt>
      <trkpt lat="43.49792" lon="6.94381">
        <ele>194.66</ele>
        <time>2015-01-20T14:55:10Z</time>
      </trkpt>
      <trkpt lat="43.49794" lon="6.94426">
        <ele>195.06</ele>
        <time>2015-01-20T14:55:28Z</time>
      </trkpt>
      <trkpt lat="43.49804" lon="6.94476">
        <ele>195.18</ele>
        <time>2015-01-20T14:55:44Z</time>
      </trkpt>
      <trkpt lat="43.49816" lon="6.94513">
        <ele>195.22</ele>
        <time>2015-01-20T14:55:55Z</time>
      </trkpt>
      <trkpt lat="43.49838" lon="6.9456">
        <ele>195.95</ele>
        <time>2015-01-20T14:56:10Z</time>
      </trkpt>
      <trkpt lat="43.49861" lon="6.946">
        <ele>196.5</ele>
        <time>2015-01-20T14:56:24Z</time>
      </trkpt>
      <trkpt lat="43.49895" lon="6.94655">
        <ele>197.04</ele>
        <time>2015-01-20T14:56:43Z</time>
      </trkpt>
      <trkpt lat="43.49925" lon="6.94696">
        <ele>197.37</ele>
        <time>2015-01-20T14:56:57Z</time>
      </trkpt>
      <trkpt lat="43.49959" lon="6.94727">
        <ele>198.3</ele>
        <time>2015-01-20T14:57:11Z</time>
      </trkpt>
      <trkpt lat="43.49991" lon="6.94754">
        <ele>198.13</ele>
        <time>2015-01-20T14:57:24Z</time>
      </trkpt>
      <trkpt lat="43.50033" lon="6.94779">
        <ele>198.91</ele>
        <time>2015-01-20T14:57:39Z</time>
      </trkpt>
      <trkpt lat="43.50057" lon="6.94789">
        <ele>200</ele>
        <time>2015-01-20T14:57:52Z</time>
      </trkpt>
      <trkpt lat="43.50058" lon="6.94789">
        <ele>200.36</ele>
        <time>2015-01-20T14:57:55Z</time>
      </trkpt>
      <trkpt lat="43.50058" lon="6.94774">
        <ele>203.31</ele>
        <time>2015-01-20T14:58:20Z</time>
      </trkpt>
      <trkpt lat="43.50052" lon="6.94759">
        <ele>206.35</ele>
        <time>2015-01-20T14:58:40Z</time>
      </trkpt>
      <trkpt lat="43.50052" lon="6.94755">
        <ele>207.75</ele>
        <time>2015-01-20T14:58:46Z</time>
      </trkpt>
      <trkpt lat="43.50046" lon="6.94741">
        <ele>210.05</ele>
        <time>2015-01-20T14:59:05Z</time>
      </trkpt>
      <trkpt lat="43.50045" lon="6.94739">
        <ele>211.06</ele>
        <time>2015-01-20T14:59:10Z</time>
      </trkpt>
      <trkpt lat="43.49995" lon="6.94618">
        <ele>242.93</ele>
        <time>2015-01-20T15:02:20Z</time>
      </trkpt>
      <trkpt lat="43.49991" lon="6.94594">
        <ele>245.02</ele>
        <time>2015-01-20T15:02:41Z</time>
      </trkpt>
      <trkpt lat="43.49978" lon="6.94586">
        <ele>247.55</ele>
        <time>2015-01-20T15:02:59Z</time>
      </trkpt>
      <trkpt lat="43.4997" lon="6.94574">
        <ele>248.28</ele>
        <time>2015-01-20T15:03:17Z</time>
      </trkpt>
      <trkpt lat="43.49966" lon="6.9457">
        <ele>247.83</ele>
        <time>2015-01-20T15:08:16Z</time>
      </trkpt>
      <trkpt lat="43.49947" lon="6.94553">
        <ele>247.63</ele>
        <time>2015-01-20T15:08:27Z</time>
      </trkpt>
      <trkpt lat="43.49946" lon="6.94526">
        <ele>243.95</ele>
        <time>2015-01-20T15:08:35Z</time>
      </trkpt>
      <trkpt lat="43.49933" lon="6.94521">
        <ele>243.46</ele>
        <time>2015-01-20T15:08:40Z</time>
      </trkpt>
      <trkpt lat="43.49914" lon="6.94499">
        <ele>243.2</ele>
        <time>2015-01-20T15:08:51Z</time>
      </trkpt>
      <trkpt lat="43.49904" lon="6.94483">
        <ele>241.96</ele>
        <time>2015-01-20T15:08:57Z</time>
      </trkpt>
      <trkpt lat="43.49902" lon="6.94482">
        <ele>241.91</ele>
        <time>2015-01-20T15:09:04Z</time>
      </trkpt>
      <trkpt lat="43.49897" lon="6.94476">
        <ele>240.88</ele>
        <time>2015-01-20T15:09:16Z</time>
      </trkpt>
      <trkpt lat="43.49892" lon="6.94458">
        <ele>239.13</ele>
        <time>2015-01-20T15:09:20Z</time>
      </trkpt>
      <trkpt lat="43.49874" lon="6.94417">
        <ele>234.73</ele>
        <time>2015-01-20T15:09:29Z</time>
      </trkpt>
      <trkpt lat="43.49878" lon="6.94406">
        <ele>231.33</ele>
        <time>2015-01-20T15:09:32Z</time>
      </trkpt>
      <trkpt lat="43.49879" lon="6.94398">
        <ele>230.5</ele>
        <time>2015-01-20T15:09:34Z</time>
      </trkpt>
      <trkpt lat="43.49887" lon="6.94363">
        <ele>226.47</ele>
        <time>2015-01-20T15:09:40Z</time>
      </trkpt>
      <trkpt lat="43.4988" lon="6.94331">
        <ele>223.07</ele>
        <time>2015-01-20T15:09:47Z</time>
      </trkpt>
      <trkpt lat="43.49879" lon="6.94323">
        <ele>221.47</ele>
        <time>2015-01-20T15:09:49Z</time>
      </trkpt>
      <trkpt lat="43.49877" lon="6.94313">
        <ele>219.82</ele>
        <time>2015-01-20T15:09:58Z</time>
      </trkpt>
      <trkpt lat="43.49876" lon="6.94315">
        <ele>219.78</ele>
        <time>2015-01-20T15:10:03Z</time>
      </trkpt>
      <trkpt lat="43.49874" lon="6.9431">
        <ele>219.22</ele>
        <time>2015-01-20T15:10:17Z</time>
      </trkpt>
      <trkpt lat="43.49874" lon="6.94309">
        <ele>219.01</ele>
        <time>2015-01-20T15:10:18Z</time>
      </trkpt>
      <trkpt lat="43.49854" lon="6.94307">
        <ele>215.49</ele>
        <time>2015-01-20T15:10:25Z</time>
      </trkpt>
      <trkpt lat="43.49842" lon="6.943">
        <ele>211.93</ele>
        <time>2015-01-20T15:10:29Z</time>
      </trkpt>
      <trkpt lat="43.49835" lon="6.94294">
        <ele>209.71</ele>
        <time>2015-01-20T15:10:32Z</time>
      </trkpt>
      <trkpt lat="43.49837" lon="6.94277">
        <ele>205.82</ele>
        <time>2015-01-20T15:10:38Z</time>
      </trkpt>
      <trkpt lat="43.49827" lon="6.94278">
        <ele>202.81</ele>
        <time>2015-01-20T15:10:41Z</time>
      </trkpt>
      <trkpt lat="43.49826" lon="6.9428">
        <ele>202.66</ele>
        <time>2015-01-20T15:10:42Z</time>
      </trkpt>
      <trkpt lat="43.49833" lon="6.94279">
        <ele>202.49</ele>
        <time>2015-01-20T15:10:54Z</time>
      </trkpt>
      <trkpt lat="43.49834" lon="6.9428">
        <ele>202.77</ele>
        <time>2015-01-20T15:10:57Z</time>
      </trkpt>
      <trkpt lat="43.49828" lon="6.94283">
        <ele>202.21</ele>
        <time>2015-01-20T15:11:06Z</time>
      </trkpt>
      <trkpt lat="43.49812" lon="6.94285">
        <ele>199.07</ele>
        <time>2015-01-20T15:11:11Z</time>
      </trkpt>
      <trkpt lat="43.49799" lon="6.94283">
        <ele>196.68</ele>
        <time>2015-01-20T15:11:14Z</time>
      </trkpt>
      <trkpt lat="43.49778" lon="6.94279">
        <ele>192.53</ele>
        <time>2015-01-20T15:11:19Z</time>
      </trkpt>
      <trkpt lat="43.49772" lon="6.94277">
        <ele>190.67</ele>
        <time>2015-01-20T15:11:20Z</time>
      </trkpt>
      <trkpt lat="43.4976" lon="6.94255">
        <ele>188.38</ele>
        <time>2015-01-20T15:11:24Z</time>
      </trkpt>
      <trkpt lat="43.49732" lon="6.94215">
        <ele>187.05</ele>
        <time>2015-01-20T15:11:32Z</time>
      </trkpt>
      <trkpt lat="43.49736" lon="6.94222">
        <ele>187.64</ele>
        <time>2015-01-20T15:11:36Z</time>
      </trkpt>
      <trkpt lat="43.49749" lon="6.94223">
        <ele>187.89</ele>
        <time>2015-01-20T15:11:48Z</time>
      </trkpt>
      <trkpt lat="43.49753" lon="6.9423">
        <ele>188.25</ele>
        <time>2015-01-20T15:12:10Z</time>
      </trkpt>
      <trkpt lat="43.49761" lon="6.9426">
        <ele>189.92</ele>
        <time>2015-01-20T15:12:19Z</time>
      </trkpt>
      <trkpt lat="43.49768" lon="6.94283">
        <ele>190.01</ele>
        <time>2015-01-20T15:12:25Z</time>
      </trkpt>
      <trkpt lat="43.4978" lon="6.94279">
        <ele>190.99</ele>
        <time>2015-01-20T15:12:35Z</time>
      </trkpt>
      <trkpt lat="43.4978" lon="6.94279">
        <ele>190.91</ele>
        <time>2015-01-20T15:12:36Z</time>
      </trkpt>
      <trkpt lat="43.49793" lon="6.94285">
        <ele>196.52</ele>
        <time>2015-01-20T15:13:32Z</time>
      </trkpt>
      <trkpt lat="43.49777" lon="6.9428">
        <ele>192.87</ele>
        <time>2015-01-20T15:13:35Z</time>
      </trkpt>
      <trkpt lat="43.49771" lon="6.94278">
        <ele>191.08</ele>
        <time>2015-01-20T15:13:36Z</time>
      </trkpt>
      <trkpt lat="43.49757" lon="6.94257">
        <ele>188.45</ele>
        <time>2015-01-20T15:13:41Z</time>
      </trkpt>
      <trkpt lat="43.49757" lon="6.94262">
        <ele>189.19</ele>
        <time>2015-01-20T15:13:43Z</time>
      </trkpt>
      <trkpt lat="43.49759" lon="6.9427">
        <ele>189.43</ele>
        <time>2015-01-20T15:13:51Z</time>
      </trkpt>
      <trkpt lat="43.49759" lon="6.94271">
        <ele>189.18</ele>
        <time>2015-01-20T15:13:53Z</time>
      </trkpt>
      <trkpt lat="43.49759" lon="6.94279">
        <ele>189.25</ele>
        <time>2015-01-20T15:13:57Z</time>
      </trkpt>
      <trkpt lat="43.4976" lon="6.94281">
        <ele>188.69</ele>
        <time>2015-01-20T15:14:03Z</time>
      </trkpt>
      <trkpt lat="43.49762" lon="6.94288">
        <ele>188.67</ele>
        <time>2015-01-20T15:14:35Z</time>
      </trkpt>
      <trkpt lat="43.49761" lon="6.94307">
        <ele>187.58</ele>
        <time>2015-01-20T15:14:44Z</time>
      </trkpt>
      <trkpt lat="43.49746" lon="6.94299">
        <ele>186.71</ele>
        <time>2015-01-20T15:14:53Z</time>
      </trkpt>
      <trkpt lat="43.49747" lon="6.94299">
        <ele>186.67</ele>
        <time>2015-01-20T15:14:58Z</time>
      </trkpt>
      <trkpt lat="43.49751" lon="6.94306">
        <ele>186.8</ele>
        <time>2015-01-20T15:15:11Z</time>
      </trkpt>
      <trkpt lat="43.49757" lon="6.94307">
        <ele>187.19</ele>
        <time>2015-01-20T15:15:15Z</time>
      </trkpt>
      <trkpt lat="43.49749" lon="6.94306">
        <ele>186.24</ele>
        <time>2015-01-20T15:15:21Z</time>
      </trkpt>
      <trkpt lat="43.49741" lon="6.94298">
        <ele>185.08</ele>
        <time>2015-01-20T15:15:23Z</time>
      </trkpt>
      <trkpt lat="43.49728" lon="6.94282">
        <ele>182.51</ele>
        <time>2015-01-20T15:15:26Z</time>
      </trkpt>
      <trkpt lat="43.4973" lon="6.94282">
        <ele>183.77</ele>
        <time>2015-01-20T15:15:38Z</time>
      </trkpt>
      <trkpt lat="43.49733" lon="6.94285">
        <ele>183.99</ele>
        <time>2015-01-20T15:15:42Z</time>
      </trkpt>
      <trkpt lat="43.49749" lon="6.94303">
        <ele>186.4</ele>
        <time>2015-01-20T15:15:51Z</time>
      </trkpt>
      <trkpt lat="43.49754" lon="6.94308">
        <ele>187.02</ele>
        <time>2015-01-20T15:15:54Z</time>
      </trkpt>
      <trkpt lat="43.49756" lon="6.94308">
        <ele>187.16</ele>
        <time>2015-01-20T15:16:01Z</time>
      </trkpt>
      <trkpt lat="43.49758" lon="6.94312">
        <ele>187.26</ele>
        <time>2015-01-20T15:16:12Z</time>
      </trkpt>
      <trkpt lat="43.49757" lon="6.94312">
        <ele>187.04</ele>
        <time>2015-01-20T15:16:17Z</time>
      </trkpt>
      <trkpt lat="43.49746" lon="6.94302">
        <ele>185.74</ele>
        <time>2015-01-20T15:19:42Z</time>
      </trkpt>
      <trkpt lat="43.49742" lon="6.94297">
        <ele>184.82</ele>
        <time>2015-01-20T15:19:43Z</time>
      </trkpt>
      <trkpt lat="43.49727" lon="6.94279">
        <ele>182.56</ele>
        <time>2015-01-20T15:19:47Z</time>
      </trkpt>
      <trkpt lat="43.49722" lon="6.94278">
        <ele>182.43</ele>
        <time>2015-01-20T15:19:48Z</time>
      </trkpt>
      <trkpt lat="43.49706" lon="6.94266">
        <ele>178.81</ele>
        <time>2015-01-20T15:19:52Z</time>
      </trkpt>
      <trkpt lat="43.49703" lon="6.94261">
        <ele>178.57</ele>
        <time>2015-01-20T15:19:53Z</time>
      </trkpt>
      <trkpt lat="43.49702" lon="6.94261">
        <ele>178.58</ele>
        <time>2015-01-20T15:20:03Z</time>
      </trkpt>
      <trkpt lat="43.49693" lon="6.94259">
        <ele>177.88</ele>
        <time>2015-01-20T15:20:12Z</time>
      </trkpt>
      <trkpt lat="43.49686" lon="6.94251">
        <ele>175.48</ele>
        <time>2015-01-20T15:20:14Z</time>
      </trkpt>
      <trkpt lat="43.49667" lon="6.94234">
        <ele>169.64</ele>
        <time>2015-01-20T15:20:20Z</time>
      </trkpt>
      <trkpt lat="43.49659" lon="6.94232">
        <ele>168.56</ele>
        <time>2015-01-20T15:20:22Z</time>
      </trkpt>
      <trkpt lat="43.4964" lon="6.94235">
        <ele>164.52</ele>
        <time>2015-01-20T15:20:26Z</time>
      </trkpt>
      <trkpt lat="43.49619" lon="6.94248">
        <ele>161.31</ele>
        <time>2015-01-20T15:20:31Z</time>
      </trkpt>
      <trkpt lat="43.4961" lon="6.94259">
        <ele>159.97</ele>
        <time>2015-01-20T15:20:34Z</time>
      </trkpt>
      <trkpt lat="43.49596" lon="6.94274">
        <ele>158.41</ele>
        <time>2015-01-20T15:20:39Z</time>
      </trkpt>
      <trkpt lat="43.49578" lon="6.94276">
        <ele>155.19</ele>
        <time>2015-01-20T15:20:44Z</time>
      </trkpt>
      <trkpt lat="43.49576" lon="6.94276">
        <ele>154.85</ele>
        <time>2015-01-20T15:20:45Z</time>
      </trkpt>
      <trkpt lat="43.4956" lon="6.94279">
        <ele>151.32</ele>
        <time>2015-01-20T15:20:53Z</time>
      </trkpt>
      <trkpt lat="43.49563" lon="6.94263">
        <ele>151.33</ele>
        <time>2015-01-20T15:21:00Z</time>
      </trkpt>
      <trkpt lat="43.49566" lon="6.9427">
        <ele>151.36</ele>
        <time>2015-01-20T15:21:08Z</time>
      </trkpt>
      <trkpt lat="43.49566" lon="6.9427">
        <ele>151.58</ele>
        <time>2015-01-20T15:21:11Z</time>
      </trkpt>
      <trkpt lat="43.49557" lon="6.94269">
        <ele>150.94</ele>
        <time>2015-01-20T15:21:46Z</time>
      </trkpt>
      <trkpt lat="43.49552" lon="6.94266">
        <ele>150.59</ele>
        <time>2015-01-20T15:21:48Z</time>
      </trkpt>
      <trkpt lat="43.49535" lon="6.94238">
        <ele>151.89</ele>
        <time>2015-01-20T15:22:01Z</time>
      </trkpt>
      <trkpt lat="43.49532" lon="6.94237">
        <ele>152.29</ele>
        <time>2015-01-20T15:22:05Z</time>
      </trkpt>
      <trkpt lat="43.49527" lon="6.9424">
        <ele>152.78</ele>
        <time>2015-01-20T15:22:08Z</time>
      </trkpt>
      <trkpt lat="43.49525" lon="6.9424">
        <ele>152.96</ele>
        <time>2015-01-20T15:22:10Z</time>
      </trkpt>
      <trkpt lat="43.49518" lon="6.94243">
        <ele>152.9</ele>
        <time>2015-01-20T15:22:15Z</time>
      </trkpt>
      <trkpt lat="43.49512" lon="6.94245">
        <ele>153.14</ele>
        <time>2015-01-20T15:22:18Z</time>
      </trkpt>
      <trkpt lat="43.49472" lon="6.94248">
        <ele>154.05</ele>
        <time>2015-01-20T15:22:34Z</time>
      </trkpt>
      <trkpt lat="43.49439" lon="6.94251">
        <ele>152.7</ele>
        <time>2015-01-20T15:22:44Z</time>
      </trkpt>
      <trkpt lat="43.49409" lon="6.94249">
        <ele>149.48</ele>
        <time>2015-01-20T15:22:49Z</time>
      </trkpt>
      <trkpt lat="43.49374" lon="6.94251">
        <ele>150.67</ele>
        <time>2015-01-20T15:22:56Z</time>
      </trkpt>
      <trkpt lat="43.49354" lon="6.94249">
        <ele>153.1</ele>
        <time>2015-01-20T15:23:03Z</time>
      </trkpt>
      <trkpt lat="43.49345" lon="6.94219">
        <ele>155.71</ele>
        <time>2015-01-20T15:23:13Z</time>
      </trkpt>
      <trkpt lat="43.49344" lon="6.9418">
        <ele>159.17</ele>
        <time>2015-01-20T15:23:27Z</time>
      </trkpt>
      <trkpt lat="43.49343" lon="6.94158">
        <ele>161.64</ele>
        <time>2015-01-20T15:23:37Z</time>
      </trkpt>
      <trkpt lat="43.49339" lon="6.9413">
        <ele>164.71</ele>
        <time>2015-01-20T15:23:52Z</time>
      </trkpt>
      <trkpt lat="43.49336" lon="6.94099">
        <ele>166.74</ele>
        <time>2015-01-20T15:24:07Z</time>
      </trkpt>
      <trkpt lat="43.49334" lon="6.94071">
        <ele>168.56</ele>
        <time>2015-01-20T15:24:20Z</time>
      </trkpt>
      <trkpt lat="43.49335" lon="6.94069">
        <ele>168.53</ele>
        <time>2015-01-20T15:24:21Z</time>
      </trkpt>
      <trkpt lat="43.49334" lon="6.94041">
        <ele>170.51</ele>
        <time>2015-01-20T15:24:33Z</time>
      </trkpt>
      <trkpt lat="43.49333" lon="6.94011">
        <ele>172.28</ele>
        <time>2015-01-20T15:24:48Z</time>
      </trkpt>
      <trkpt lat="43.49328" lon="6.93983">
        <ele>173.62</ele>
        <time>2015-01-20T15:25:01Z</time>
      </trkpt>
      <trkpt lat="43.49324" lon="6.9395">
        <ele>176.14</ele>
        <time>2015-01-20T15:25:16Z</time>
      </trkpt>
      <trkpt lat="43.49314" lon="6.93912">
        <ele>178.88</ele>
        <time>2015-01-20T15:25:32Z</time>
      </trkpt>
      <trkpt lat="43.49305" lon="6.93872">
        <ele>180.14</ele>
        <time>2015-01-20T15:25:47Z</time>
      </trkpt>
      <trkpt lat="43.49301" lon="6.93852">
        <ele>180.47</ele>
        <time>2015-01-20T15:25:59Z</time>
      </trkpt>
      <trkpt lat="43.49301" lon="6.93845">
        <ele>180.46</ele>
        <time>2015-01-20T15:26:03Z</time>
      </trkpt>
      <trkpt lat="43.49305" lon="6.9381">
        <ele>180.47</ele>
        <time>2015-01-20T15:26:18Z</time>
      </trkpt>
      <trkpt lat="43.49309" lon="6.93785">
        <ele>180.35</ele>
        <time>2015-01-20T15:26:29Z</time>
      </trkpt>
      <trkpt lat="43.49306" lon="6.93742">
        <ele>180.36</ele>
        <time>2015-01-20T15:26:45Z</time>
      </trkpt>
      <trkpt lat="43.49299" lon="6.93723">
        <ele>179.68</ele>
        <time>2015-01-20T15:26:49Z</time>
      </trkpt>
      <trkpt lat="43.49306" lon="6.93678">
        <ele>178.81</ele>
        <time>2015-01-20T15:26:56Z</time>
      </trkpt>
      <trkpt lat="43.49325" lon="6.93657">
        <ele>175.17</ele>
        <time>2015-01-20T15:27:00Z</time>
      </trkpt>
      <trkpt lat="43.49337" lon="6.93623">
        <ele>169.97</ele>
        <time>2015-01-20T15:27:05Z</time>
      </trkpt>
      <trkpt lat="43.4934" lon="6.93606">
        <ele>169.11</ele>
        <time>2015-01-20T15:27:07Z</time>
      </trkpt>
      <trkpt lat="43.49351" lon="6.9358">
        <ele>168.45</ele>
        <time>2015-01-20T15:27:10Z</time>
      </trkpt>
      <trkpt lat="43.4937" lon="6.93545">
        <ele>170.1</ele>
        <time>2015-01-20T15:27:16Z</time>
      </trkpt>
      <trkpt lat="43.49378" lon="6.93537">
        <ele>170.81</ele>
        <time>2015-01-20T15:27:18Z</time>
      </trkpt>
      <trkpt lat="43.49384" lon="6.93527">
        <ele>169.43</ele>
        <time>2015-01-20T15:27:20Z</time>
      </trkpt>
      <trkpt lat="43.49403" lon="6.93492">
        <ele>165.49</ele>
        <time>2015-01-20T15:27:28Z</time>
      </trkpt>
      <trkpt lat="43.49421" lon="6.93454">
        <ele>164.96</ele>
        <time>2015-01-20T15:27:39Z</time>
      </trkpt>
      <trkpt lat="43.49434" lon="6.9344">
        <ele>160.86</ele>
        <time>2015-01-20T15:27:45Z</time>
      </trkpt>
      <trkpt lat="43.49439" lon="6.93436">
        <ele>159.51</ele>
        <time>2015-01-20T15:27:47Z</time>
      </trkpt>
      <trkpt lat="43.4944" lon="6.93454">
        <ele>156.5</ele>
        <time>2015-01-20T15:27:53Z</time>
      </trkpt>
      <trkpt lat="43.49438" lon="6.93462">
        <ele>155.74</ele>
        <time>2015-01-20T15:27:55Z</time>
      </trkpt>
      <trkpt lat="43.49438" lon="6.93477">
        <ele>151.62</ele>
        <time>2015-01-20T15:28:02Z</time>
      </trkpt>
      <trkpt lat="43.49438" lon="6.93486">
        <ele>148.47</ele>
        <time>2015-01-20T15:28:05Z</time>
      </trkpt>
      <trkpt lat="43.49438" lon="6.93498">
        <ele>145.84</ele>
        <time>2015-01-20T15:28:09Z</time>
      </trkpt>
      <trkpt lat="43.49432" lon="6.93519">
        <ele>143.47</ele>
        <time>2015-01-20T15:28:17Z</time>
      </trkpt>
      <trkpt lat="43.49436" lon="6.93524">
        <ele>141.18</ele>
        <time>2015-01-20T15:28:21Z</time>
      </trkpt>
      <trkpt lat="43.49436" lon="6.93523">
        <ele>140.83</ele>
        <time>2015-01-20T15:28:28Z</time>
      </trkpt>
      <trkpt lat="43.49441" lon="6.93534">
        <ele>139.1</ele>
        <time>2015-01-20T15:28:38Z</time>
      </trkpt>
      <trkpt lat="43.49443" lon="6.93539">
        <ele>138.33</ele>
        <time>2015-01-20T15:28:40Z</time>
      </trkpt>
      <trkpt lat="43.4944" lon="6.93543">
        <ele>138.4</ele>
        <time>2015-01-20T15:28:50Z</time>
      </trkpt>
      <trkpt lat="43.49444" lon="6.93553">
        <ele>137.24</ele>
        <time>2015-01-20T15:30:30Z</time>
      </trkpt>
      <trkpt lat="43.49451" lon="6.93563">
        <ele>133.87</ele>
        <time>2015-01-20T15:30:34Z</time>
      </trkpt>
      <trkpt lat="43.49458" lon="6.93583">
        <ele>130.97</ele>
        <time>2015-01-20T15:30:39Z</time>
      </trkpt>
      <trkpt lat="43.49464" lon="6.93594">
        <ele>127.27</ele>
        <time>2015-01-20T15:30:44Z</time>
      </trkpt>
      <trkpt lat="43.49475" lon="6.93597">
        <ele>122.89</ele>
        <time>2015-01-20T15:30:51Z</time>
      </trkpt>
      <trkpt lat="43.49482" lon="6.93612">
        <ele>119.36</ele>
        <time>2015-01-20T15:30:55Z</time>
      </trkpt>
      <trkpt lat="43.49487" lon="6.93613">
        <ele>116.92</ele>
        <time>2015-01-20T15:30:57Z</time>
      </trkpt>
      <trkpt lat="43.49493" lon="6.93611">
        <ele>113.29</ele>
        <time>2015-01-20T15:31:00Z</time>
      </trkpt>
      <trkpt lat="43.49507" lon="6.93615">
        <ele>108.14</ele>
        <time>2015-01-20T15:31:06Z</time>
      </trkpt>
      <trkpt lat="43.49511" lon="6.93623">
        <ele>106.05</ele>
        <time>2015-01-20T15:31:09Z</time>
      </trkpt>
      <trkpt lat="43.49515" lon="6.93633">
        <ele>102.61</ele>
        <time>2015-01-20T15:31:14Z</time>
      </trkpt>
      <trkpt lat="43.49516" lon="6.93633">
        <ele>102.56</ele>
        <time>2015-01-20T15:31:15Z</time>
      </trkpt>
      <trkpt lat="43.49523" lon="6.9363">
        <ele>100.96</ele>
        <time>2015-01-20T15:31:19Z</time>
      </trkpt>
      <trkpt lat="43.49529" lon="6.93644">
        <ele>95.89</ele>
        <time>2015-01-20T15:31:25Z</time>
      </trkpt>
      <trkpt lat="43.49529" lon="6.93648">
        <ele>95.15</ele>
        <time>2015-01-20T15:31:26Z</time>
      </trkpt>
      <trkpt lat="43.4953" lon="6.93654">
        <ele>93.85</ele>
        <time>2015-01-20T15:31:28Z</time>
      </trkpt>
      <trkpt lat="43.4954" lon="6.93651">
        <ele>91.04</ele>
        <time>2015-01-20T15:31:32Z</time>
      </trkpt>
      <trkpt lat="43.49553" lon="6.93626">
        <ele>86.89</ele>
        <time>2015-01-20T15:31:39Z</time>
      </trkpt>
      <trkpt lat="43.49556" lon="6.93605">
        <ele>83.64</ele>
        <time>2015-01-20T15:31:44Z</time>
      </trkpt>
      <trkpt lat="43.49564" lon="6.93608">
        <ele>81.25</ele>
        <time>2015-01-20T15:31:48Z</time>
      </trkpt>
      <trkpt lat="43.49569" lon="6.93615">
        <ele>77.72</ele>
        <time>2015-01-20T15:31:51Z</time>
      </trkpt>
      <trkpt lat="43.49571" lon="6.93617">
        <ele>76.99</ele>
        <time>2015-01-20T15:31:52Z</time>
      </trkpt>
      <trkpt lat="43.49577" lon="6.93626">
        <ele>74.12</ele>
        <time>2015-01-20T15:31:55Z</time>
      </trkpt>
      <trkpt lat="43.49581" lon="6.93637">
        <ele>72.14</ele>
        <time>2015-01-20T15:31:58Z</time>
      </trkpt>
      <trkpt lat="43.49584" lon="6.93647">
        <ele>69.11</ele>
        <time>2015-01-20T15:32:02Z</time>
      </trkpt>
      <trkpt lat="43.49585" lon="6.93649">
        <ele>66.97</ele>
        <time>2015-01-20T15:32:05Z</time>
      </trkpt>
      <trkpt lat="43.49594" lon="6.93643">
        <ele>64.17</ele>
        <time>2015-01-20T15:32:09Z</time>
      </trkpt>
      <trkpt lat="43.49595" lon="6.9366">
        <ele>60.14</ele>
        <time>2015-01-20T15:32:15Z</time>
      </trkpt>
      <trkpt lat="43.49593" lon="6.93665">
        <ele>59.51</ele>
        <time>2015-01-20T15:32:17Z</time>
      </trkpt>
      <trkpt lat="43.49589" lon="6.93677">
        <ele>56.34</ele>
        <time>2015-01-20T15:32:25Z</time>
      </trkpt>
      <trkpt lat="43.49601" lon="6.93668">
        <ele>52.06</ele>
        <time>2015-01-20T15:32:29Z</time>
      </trkpt>
      <trkpt lat="43.49603" lon="6.93665">
        <ele>51.93</ele>
        <time>2015-01-20T15:32:30Z</time>
      </trkpt>
      <trkpt lat="43.49605" lon="6.93663">
        <ele>52.1</ele>
        <time>2015-01-20T15:32:31Z</time>
      </trkpt>
      <trkpt lat="43.4961" lon="6.93662">
        <ele>52.77</ele>
        <time>2015-01-20T15:32:42Z</time>
      </trkpt>
      <trkpt lat="43.49614" lon="6.93667">
        <ele>52.5</ele>
        <time>2015-01-20T15:32:45Z</time>
      </trkpt>
      <trkpt lat="43.49622" lon="6.93664">
        <ele>52.42</ele>
        <time>2015-01-20T15:32:49Z</time>
      </trkpt>
      <trkpt lat="43.49636" lon="6.93648">
        <ele>52.44</ele>
        <time>2015-01-20T15:33:02Z</time>
      </trkpt>
      <trkpt lat="43.49637" lon="6.93644">
        <ele>51.86</ele>
        <time>2015-01-20T15:35:46Z</time>
      </trkpt>
      <trkpt lat="43.49657" lon="6.93618">
        <ele>51.63</ele>
        <time>2015-01-20T15:35:59Z</time>
      </trkpt>
      <trkpt lat="43.49679" lon="6.93582">
        <ele>51.69</ele>
        <time>2015-01-20T15:36:12Z</time>
      </trkpt>
      <trkpt lat="43.49713" lon="6.93558">
        <ele>51.91</ele>
        <time>2015-01-20T15:36:26Z</time>
      </trkpt>
      <trkpt lat="43.49745" lon="6.9357">
        <ele>51.06</ele>
        <time>2015-01-20T15:36:37Z</time>
      </trkpt>
      <trkpt lat="43.49746" lon="6.9357">
        <ele>50.69</ele>
        <time>2015-01-20T15:36:42Z</time>
      </trkpt>
      <trkpt lat="43.49749" lon="6.93568">
        <ele>50.51</ele>
        <time>2015-01-20T15:36:48Z</time>
      </trkpt>
      <trkpt lat="43.4974" lon="6.93565">
        <ele>50.73</ele>
        <time>2015-01-20T15:36:56Z</time>
      </trkpt>
      <trkpt lat="43.49705" lon="6.93562">
        <ele>51.36</ele>
        <time>2015-01-20T15:37:08Z</time>
      </trkpt>
      <trkpt lat="43.49672" lon="6.93595">
        <ele>51.81</ele>
        <time>2015-01-20T15:37:21Z</time>
      </trkpt>
      <trkpt lat="43.49642" lon="6.93649">
        <ele>50.93</ele>
        <time>2015-01-20T15:37:34Z</time>
      </trkpt>
      <trkpt lat="43.49623" lon="6.93666">
        <ele>51.53</ele>
        <time>2015-01-20T15:37:41Z</time>
      </trkpt>
      <trkpt lat="43.49614" lon="6.93648">
        <ele>51.98</ele>
        <time>2015-01-20T15:37:48Z</time>
      </trkpt>
      <trkpt lat="43.49626" lon="6.93621">
        <ele>55.27</ele>
        <time>2015-01-20T15:37:59Z</time>
      </trkpt>
      <trkpt lat="43.49635" lon="6.93585">
        <ele>58.17</ele>
        <time>2015-01-20T15:38:14Z</time>
      </trkpt>
      <trkpt lat="43.49646" lon="6.9355">
        <ele>60.22</ele>
        <time>2015-01-20T15:38:29Z</time>
      </trkpt>
      <trkpt lat="43.49661" lon="6.93516">
        <ele>62.63</ele>
        <time>2015-01-20T15:38:45Z</time>
      </trkpt>
      <trkpt lat="43.49669" lon="6.9348">
        <ele>65.21</ele>
        <time>2015-01-20T15:39:01Z</time>
      </trkpt>
      <trkpt lat="43.4966" lon="6.93449">
        <ele>68.1</ele>
        <time>2015-01-20T15:39:15Z</time>
      </trkpt>
      <trkpt lat="43.4965" lon="6.93425">
        <ele>70.02</ele>
        <time>2015-01-20T15:39:27Z</time>
      </trkpt>
      <trkpt lat="43.49637" lon="6.93398">
        <ele>72.34</ele>
        <time>2015-01-20T15:39:41Z</time>
      </trkpt>
      <trkpt lat="43.49622" lon="6.93381">
        <ele>74.43</ele>
        <time>2015-01-20T15:39:54Z</time>
      </trkpt>
      <trkpt lat="43.49602" lon="6.93368">
        <ele>76.41</ele>
        <time>2015-01-20T15:40:08Z</time>
      </trkpt>
      <trkpt lat="43.49582" lon="6.93362">
        <ele>78.41</ele>
        <time>2015-01-20T15:40:20Z</time>
      </trkpt>
      <trkpt lat="43.49571" lon="6.93355">
        <ele>79.27</ele>
        <time>2015-01-20T15:40:27Z</time>
      </trkpt>
      <trkpt lat="43.49574" lon="6.9334">
        <ele>80.02</ele>
        <time>2015-01-20T15:40:33Z</time>
      </trkpt>
      <trkpt lat="43.49599" lon="6.93321">
        <ele>81.28</ele>
        <time>2015-01-20T15:40:48Z</time>
      </trkpt>
      <trkpt lat="43.49604" lon="6.93319">
        <ele>81.42</ele>
        <time>2015-01-20T15:40:51Z</time>
      </trkpt>
      <trkpt lat="43.4961" lon="6.93316">
        <ele>81.55</ele>
        <time>2015-01-20T15:40:55Z</time>
      </trkpt>
      <trkpt lat="43.49621" lon="6.93306">
        <ele>82.14</ele>
        <time>2015-01-20T15:41:02Z</time>
      </trkpt>
      <trkpt lat="43.49625" lon="6.93267">
        <ele>83.64</ele>
        <time>2015-01-20T15:41:17Z</time>
      </trkpt>
      <trkpt lat="43.49611" lon="6.93234">
        <ele>85.97</ele>
        <time>2015-01-20T15:41:32Z</time>
      </trkpt>
      <trkpt lat="43.49584" lon="6.93208">
        <ele>85.95</ele>
        <time>2015-01-20T15:41:46Z</time>
      </trkpt>
      <trkpt lat="43.49583" lon="6.93184">
        <ele>86.34</ele>
        <time>2015-01-20T15:41:54Z</time>
      </trkpt>
      <trkpt lat="43.49604" lon="6.93161">
        <ele>87.57</ele>
        <time>2015-01-20T15:42:07Z</time>
      </trkpt>
      <trkpt lat="43.49623" lon="6.93137">
        <ele>89.56</ele>
        <time>2015-01-20T15:42:20Z</time>
      </trkpt>
      <trkpt lat="43.49635" lon="6.93105">
        <ele>91.77</ele>
        <time>2015-01-20T15:42:34Z</time>
      </trkpt>
      <trkpt lat="43.49639" lon="6.93072">
        <ele>93.59</ele>
        <time>2015-01-20T15:42:46Z</time>
      </trkpt>
      <trkpt lat="43.49627" lon="6.93041">
        <ele>95.98</ele>
        <time>2015-01-20T15:43:00Z</time>
      </trkpt>
      <trkpt lat="43.49602" lon="6.93026">
        <ele>97.79</ele>
        <time>2015-01-20T15:43:13Z</time>
      </trkpt>
      <trkpt lat="43.49593" lon="6.93">
        <ele>98.55</ele>
        <time>2015-01-20T15:43:24Z</time>
      </trkpt>
      <trkpt lat="43.49598" lon="6.92989">
        <ele>98.91</ele>
        <time>2015-01-20T15:43:29Z</time>
      </trkpt>
      <trkpt lat="43.49601" lon="6.92984">
        <ele>99.9</ele>
        <time>2015-01-20T15:43:38Z</time>
      </trkpt>
      <trkpt lat="43.49598" lon="6.92979">
        <ele>100.6</ele>
        <time>2015-01-20T15:46:48Z</time>
      </trkpt>
      <trkpt lat="43.49582" lon="6.9295">
        <ele>102.51</ele>
        <time>2015-01-20T15:47:02Z</time>
      </trkpt>
      <trkpt lat="43.49572" lon="6.92924">
        <ele>103.93</ele>
        <time>2015-01-20T15:47:15Z</time>
      </trkpt>
      <trkpt lat="43.49555" lon="6.92893">
        <ele>106.85</ele>
        <time>2015-01-20T15:47:32Z</time>
      </trkpt>
      <trkpt lat="43.4954" lon="6.92872">
        <ele>108.88</ele>
        <time>2015-01-20T15:47:45Z</time>
      </trkpt>
      <trkpt lat="43.49523" lon="6.92848">
        <ele>110.62</ele>
        <time>2015-01-20T15:47:58Z</time>
      </trkpt>
      <trkpt lat="43.49505" lon="6.92818">
        <ele>112.31</ele>
        <time>2015-01-20T15:48:12Z</time>
      </trkpt>
      <trkpt lat="43.495" lon="6.92786">
        <ele>113.71</ele>
        <time>2015-01-20T15:48:25Z</time>
      </trkpt>
      <trkpt lat="43.49498" lon="6.92779">
        <ele>114.02</ele>
        <time>2015-01-20T15:48:29Z</time>
      </trkpt>
      <trkpt lat="43.49494" lon="6.92774">
        <ele>114.32</ele>
        <time>2015-01-20T15:48:33Z</time>
      </trkpt>
      <trkpt lat="43.4949" lon="6.92767">
        <ele>114.47</ele>
        <time>2015-01-20T15:48:37Z</time>
      </trkpt>
      <trkpt lat="43.49491" lon="6.9276">
        <ele>114.72</ele>
        <time>2015-01-20T15:48:46Z</time>
      </trkpt>
      <trkpt lat="43.49499" lon="6.92772">
        <ele>113.47</ele>
        <time>2015-01-20T15:49:29Z</time>
      </trkpt>
      <trkpt lat="43.49502" lon="6.92776">
        <ele>112.49</ele>
        <time>2015-01-20T15:49:31Z</time>
      </trkpt>
      <trkpt lat="43.49508" lon="6.9279">
        <ele>111.2</ele>
        <time>2015-01-20T15:49:34Z</time>
      </trkpt>
      <trkpt lat="43.49521" lon="6.92829">
        <ele>107.21</ele>
        <time>2015-01-20T15:49:40Z</time>
      </trkpt>
      <trkpt lat="43.49526" lon="6.92832">
        <ele>106.2</ele>
        <time>2015-01-20T15:49:41Z</time>
      </trkpt>
      <trkpt lat="43.49536" lon="6.92841">
        <ele>104.04</ele>
        <time>2015-01-20T15:49:43Z</time>
      </trkpt>
      <trkpt lat="43.49552" lon="6.92863">
        <ele>100.57</ele>
        <time>2015-01-20T15:49:47Z</time>
      </trkpt>
      <trkpt lat="43.49564" lon="6.92875">
        <ele>98.77</ele>
        <time>2015-01-20T15:49:50Z</time>
      </trkpt>
      <trkpt lat="43.49573" lon="6.92881">
        <ele>97.44</ele>
        <time>2015-01-20T15:49:52Z</time>
      </trkpt>
      <trkpt lat="43.49581" lon="6.9289">
        <ele>96.82</ele>
        <time>2015-01-20T15:49:54Z</time>
      </trkpt>
      <trkpt lat="43.49588" lon="6.92899">
        <ele>96.03</ele>
        <time>2015-01-20T15:49:56Z</time>
      </trkpt>
      <trkpt lat="43.49603" lon="6.92925">
        <ele>92.53</ele>
        <time>2015-01-20T15:50:02Z</time>
      </trkpt>
      <trkpt lat="43.49622" lon="6.92948">
        <ele>88.62</ele>
        <time>2015-01-20T15:50:10Z</time>
      </trkpt>
      <trkpt lat="43.49633" lon="6.92952">
        <ele>86.57</ele>
        <time>2015-01-20T15:50:13Z</time>
      </trkpt>
      <trkpt lat="43.49648" lon="6.92955">
        <ele>84.55</ele>
        <time>2015-01-20T15:50:16Z</time>
      </trkpt>
      <trkpt lat="43.49663" lon="6.92965">
        <ele>82.78</ele>
        <time>2015-01-20T15:50:20Z</time>
      </trkpt>
      <trkpt lat="43.49667" lon="6.92968">
        <ele>81.86</ele>
        <time>2015-01-20T15:50:21Z</time>
      </trkpt>
      <trkpt lat="43.4968" lon="6.92989">
        <ele>80.02</ele>
        <time>2015-01-20T15:50:26Z</time>
      </trkpt>
      <trkpt lat="43.49689" lon="6.93">
        <ele>78.06</ele>
        <time>2015-01-20T15:50:35Z</time>
      </trkpt>
      <trkpt lat="43.49704" lon="6.93028">
        <ele>75.01</ele>
        <time>2015-01-20T15:50:47Z</time>
      </trkpt>
      <trkpt lat="43.49708" lon="6.93032">
        <ele>74.58</ele>
        <time>2015-01-20T15:50:54Z</time>
      </trkpt>
      <trkpt lat="43.4971" lon="6.93065">
        <ele>71.15</ele>
        <time>2015-01-20T15:51:00Z</time>
      </trkpt>
      <trkpt lat="43.49707" lon="6.93078">
        <ele>70.07</ele>
        <time>2015-01-20T15:51:02Z</time>
      </trkpt>
      <trkpt lat="43.49705" lon="6.93084">
        <ele>69.86</ele>
        <time>2015-01-20T15:51:03Z</time>
      </trkpt>
      <trkpt lat="43.497" lon="6.93104">
        <ele>67.03</ele>
        <time>2015-01-20T15:51:06Z</time>
      </trkpt>
      <trkpt lat="43.49688" lon="6.9314">
        <ele>63.08</ele>
        <time>2015-01-20T15:51:10Z</time>
      </trkpt>
      <trkpt lat="43.49679" lon="6.93168">
        <ele>59.83</ele>
        <time>2015-01-20T15:51:13Z</time>
      </trkpt>
      <trkpt lat="43.49665" lon="6.93193">
        <ele>59.18</ele>
        <time>2015-01-20T15:51:19Z</time>
      </trkpt>
      <trkpt lat="43.49671" lon="6.93208">
        <ele>57.41</ele>
        <time>2015-01-20T15:51:31Z</time>
      </trkpt>
      <trkpt lat="43.49673" lon="6.93224">
        <ele>55.48</ele>
        <time>2015-01-20T15:51:43Z</time>
      </trkpt>
      <trkpt lat="43.49674" lon="6.93257">
        <ele>53.61</ele>
        <time>2015-01-20T15:51:59Z</time>
      </trkpt>
      <trkpt lat="43.49674" lon="6.93267">
        <ele>52.91</ele>
        <time>2015-01-20T15:52:01Z</time>
      </trkpt>
      <trkpt lat="43.49671" lon="6.93277">
        <ele>52.21</ele>
        <time>2015-01-20T15:52:03Z</time>
      </trkpt>
      <trkpt lat="43.4966" lon="6.93302">
        <ele>51.52</ele>
        <time>2015-01-20T15:52:08Z</time>
      </trkpt>
      <trkpt lat="43.49656" lon="6.9332">
        <ele>51.02</ele>
        <time>2015-01-20T15:52:11Z</time>
      </trkpt>
      <trkpt lat="43.49653" lon="6.93332">
        <ele>49.98</ele>
        <time>2015-01-20T15:52:13Z</time>
      </trkpt>
      <trkpt lat="43.49655" lon="6.93344">
        <ele>48.85</ele>
        <time>2015-01-20T15:52:15Z</time>
      </trkpt>
      <trkpt lat="43.49664" lon="6.93363">
        <ele>47.72</ele>
        <time>2015-01-20T15:52:20Z</time>
      </trkpt>
      <trkpt lat="43.49671" lon="6.93384">
        <ele>44.72</ele>
        <time>2015-01-20T15:52:25Z</time>
      </trkpt>
      <trkpt lat="43.49686" lon="6.9342">
        <ele>42.99</ele>
        <time>2015-01-20T15:52:32Z</time>
      </trkpt>
      <trkpt lat="43.4969" lon="6.93433">
        <ele>41.85</ele>
        <time>2015-01-20T15:52:34Z</time>
      </trkpt>
      <trkpt lat="43.49693" lon="6.93464">
        <ele>40.68</ele>
        <time>2015-01-20T15:52:38Z</time>
      </trkpt>
      <trkpt lat="43.497" lon="6.93492">
        <ele>40.03</ele>
        <time>2015-01-20T15:52:42Z</time>
      </trkpt>
      <trkpt lat="43.49697" lon="6.93511">
        <ele>41.15</ele>
        <time>2015-01-20T15:52:47Z</time>
      </trkpt>
      <trkpt lat="43.49693" lon="6.93513">
        <ele>41.99</ele>
        <time>2015-01-20T15:52:49Z</time>
      </trkpt>
      <trkpt lat="43.4967" lon="6.93543">
        <ele>40.61</ele>
        <time>2015-01-20T15:53:00Z</time>
      </trkpt>
      <trkpt lat="43.49666" lon="6.93559">
        <ele>40.51</ele>
        <time>2015-01-20T15:53:05Z</time>
      </trkpt>
      <trkpt lat="43.49678" lon="6.93552">
        <ele>41.17</ele>
        <time>2015-01-20T15:53:11Z</time>
      </trkpt>
      <trkpt lat="43.49714" lon="6.93546">
        <ele>41.82</ele>
        <time>2015-01-20T15:53:24Z</time>
      </trkpt>
      <trkpt lat="43.49742" lon="6.93559">
        <ele>38.44</ele>
        <time>2015-01-20T15:53:33Z</time>
      </trkpt>
      <trkpt lat="43.49756" lon="6.93566">
        <ele>37.93</ele>
        <time>2015-01-20T15:53:37Z</time>
      </trkpt>
      <trkpt lat="43.49769" lon="6.93575">
        <ele>35.94</ele>
        <time>2015-01-20T15:53:40Z</time>
      </trkpt>
      <trkpt lat="43.49811" lon="6.93605">
        <ele>31.57</ele>
        <time>2015-01-20T15:53:51Z</time>
      </trkpt>
      <trkpt lat="43.49841" lon="6.93638">
        <ele>28.52</ele>
        <time>2015-01-20T15:54:01Z</time>
      </trkpt>
      <trkpt lat="43.4985" lon="6.93636">
        <ele>28.38</ele>
        <time>2015-01-20T15:54:03Z</time>
      </trkpt>
      <trkpt lat="43.49864" lon="6.93633">
        <ele>27.44</ele>
        <time>2015-01-20T15:54:05Z</time>
      </trkpt>
      <trkpt lat="43.4989" lon="6.93641">
        <ele>26.28</ele>
        <time>2015-01-20T15:54:13Z</time>
      </trkpt>
      <trkpt lat="43.49919" lon="6.93647">
        <ele>23.15</ele>
        <time>2015-01-20T15:54:21Z</time>
      </trkpt>
      <trkpt lat="43.49954" lon="6.93667">
        <ele>19.59</ele>
        <time>2015-01-20T15:54:30Z</time>
      </trkpt>
      <trkpt lat="43.49958" lon="6.9367">
        <ele>19.54</ele>
        <time>2015-01-20T15:54:31Z</time>
      </trkpt>
      <trkpt lat="43.49985" lon="6.93686">
        <ele>17.6</ele>
        <time>2015-01-20T15:54:36Z</time>
      </trkpt>
      <trkpt lat="43.50003" lon="6.93702">
        <ele>20.2</ele>
        <time>2015-01-20T15:54:44Z</time>
      </trkpt>
      <trkpt lat="43.50004" lon="6.93701">
        <ele>19.74</ele>
        <time>2015-01-20T15:54:51Z</time>
      </trkpt>
      <trkpt lat="43.50011" lon="6.93696">
        <ele>19.24</ele>
        <time>2015-01-20T15:56:10Z</time>
      </trkpt>
      <trkpt lat="43.5003" lon="6.937">
        <ele>16.54</ele>
        <time>2015-01-20T15:56:18Z</time>
      </trkpt>
      <trkpt lat="43.50054" lon="6.93695">
        <ele>13.38</ele>
        <time>2015-01-20T15:56:23Z</time>
      </trkpt>
      <trkpt lat="43.50074" lon="6.93697">
        <ele>11.85</ele>
        <time>2015-01-20T15:56:27Z</time>
      </trkpt>
      <trkpt lat="43.50083" lon="6.93701">
        <ele>11.07</ele>
        <time>2015-01-20T15:56:29Z</time>
      </trkpt>
      <trkpt lat="43.50116" lon="6.93716">
        <ele>11.08</ele>
        <time>2015-01-20T15:56:39Z</time>
      </trkpt>
      <trkpt lat="43.50156" lon="6.93718">
        <ele>9.33</ele>
        <time>2015-01-20T15:56:49Z</time>
      </trkpt>
      <trkpt lat="43.50203" lon="6.93715">
        <ele>7.13</ele>
        <time>2015-01-20T15:57:01Z</time>
      </trkpt>
      <trkpt lat="43.50212" lon="6.93713">
        <ele>6.75</ele>
        <time>2015-01-20T15:57:03Z</time>
      </trkpt>
      <trkpt lat="43.50271" lon="6.93692">
        <ele>7.93</ele>
        <time>2015-01-20T15:57:18Z</time>
      </trkpt>
      <trkpt lat="43.50287" lon="6.93695">
        <ele>9.53</ele>
        <time>2015-01-20T15:57:23Z</time>
      </trkpt>
      <trkpt lat="43.50312" lon="6.93714">
        <ele>5.91</ele>
        <time>2015-01-20T15:57:28Z</time>
      </trkpt>
      <trkpt lat="43.50326" lon="6.93729">
        <ele>4.53</ele>
        <time>2015-01-20T15:57:31Z</time>
      </trkpt>
      <trkpt lat="43.50348" lon="6.93736">
        <ele>5.34</ele>
        <time>2015-01-20T15:57:40Z</time>
      </trkpt>
      <trkpt lat="43.50379" lon="6.9375">
        <ele>3.09</ele>
        <time>2015-01-20T15:57:47Z</time>
      </trkpt>
      <trkpt lat="43.50393" lon="6.93763">
        <ele>2.46</ele>
        <time>2015-01-20T15:57:50Z</time>
      </trkpt>
      <trkpt lat="43.504" lon="6.93772">
        <ele>1.7</ele>
        <time>2015-01-20T15:57:52Z</time>
      </trkpt>
      <trkpt lat="43.50405" lon="6.93781">
        <ele>1.4</ele>
        <time>2015-01-20T15:57:54Z</time>
      </trkpt>
      <trkpt lat="43.50428" lon="6.93814">
        <ele>-1.05</ele>
        <time>2015-01-20T15:58:00Z</time>
      </trkpt>
      <trkpt lat="43.5044" lon="6.93836">
        <ele>-2.66</ele>
        <time>2015-01-20T15:58:04Z</time>
      </trkpt>
      <trkpt lat="43.50451" lon="6.93845">
        <ele>-3.37</ele>
        <time>2015-01-20T15:58:07Z</time>
      </trkpt>
      <trkpt lat="43.50493" lon="6.93873">
        <ele>-4.51</ele>
        <time>2015-01-20T15:58:18Z</time>
      </trkpt>
      <trkpt lat="43.50497" lon="6.93872">
        <ele>-4.59</ele>
        <time>2015-01-20T15:58:22Z</time>
      </trkpt>
      <trkpt lat="43.50536" lon="6.93898">
        <ele>-5.54</ele>
        <time>2015-01-20T15:58:35Z</time>
      </trkpt>
      <trkpt lat="43.50557" lon="6.93914">
        <ele>-6.01</ele>
        <time>2015-01-20T15:58:41Z</time>
      </trkpt>
      <trkpt lat="43.50595" lon="6.93963">
        <ele>-7.52</ele>
        <time>2015-01-20T15:58:54Z</time>
      </trkpt>
      <trkpt lat="43.50603" lon="6.93973">
        <ele>-7.46</ele>
        <time>2015-01-20T15:58:57Z</time>
      </trkpt>
      <trkpt lat="43.50612" lon="6.93997">
        <ele>-7.88</ele>
        <time>2015-01-20T15:59:04Z</time>
      </trkpt>
      <trkpt lat="43.50639" lon="6.94025">
        <ele>-7.82</ele>
        <time>2015-01-20T15:59:14Z</time>
      </trkpt>
      <trkpt lat="43.50649" lon="6.94035">
        <ele>-8.25</ele>
        <time>2015-01-20T15:59:18Z</time>
      </trkpt>
      <trkpt lat="43.5066" lon="6.94054">
        <ele>-8.43</ele>
        <time>2015-01-20T15:59:24Z</time>
      </trkpt>
      <trkpt lat="43.50692" lon="6.94099">
        <ele>-9.14</ele>
        <time>2015-01-20T15:59:37Z</time>
      </trkpt>
      <trkpt lat="43.50723" lon="6.94142">
        <ele>-9.18</ele>
        <time>2015-01-20T15:59:51Z</time>
      </trkpt>
      <trkpt lat="43.50735" lon="6.94161">
        <ele>-8.79</ele>
        <time>2015-01-20T15:59:58Z</time>
      </trkpt>
      <trkpt lat="43.50739" lon="6.94159">
        <ele>-8.3</ele>
        <time>2015-01-20T16:00:10Z</time>
      </trkpt>
      <trkpt lat="43.50747" lon="6.94162">
        <ele>-8.16</ele>
        <time>2015-01-20T16:00:20Z</time>
      </trkpt>
      <trkpt lat="43.50754" lon="6.94168">
        <ele>-8.38</ele>
        <time>2015-01-20T16:00:24Z</time>
      </trkpt>
      <trkpt lat="43.5079" lon="6.94172">
        <ele>-9.8</ele>
        <time>2015-01-20T16:00:34Z</time>
      </trkpt>
      <trkpt lat="43.50817" lon="6.94162">
        <ele>-10.48</ele>
        <time>2015-01-20T16:00:39Z</time>
      </trkpt>
      <trkpt lat="43.50839" lon="6.94132">
        <ele>-10.17</ele>
        <time>2015-01-20T16:00:48Z</time>
      </trkpt>
      <trkpt lat="43.50839" lon="6.9413">
        <ele>-10.11</ele>
        <time>2015-01-20T16:00:54Z</time>
      </trkpt>
    </trkseg>
  </trk>
</gpx>